Time,TemperatureF,DewpointF,PressureIn,WindDirection,WindDirectionDegrees,WindSpeedMPH,WindSpeedGustMPH,Humidity,HourlyPrecipIn,Conditions,Clouds,dailyrainin,SolarRadiationWatts/m^2,SoftwareType,DateUTC
2013-03-09 00:00:00,35.3,33.8,30.07,ESE,121,6.0,8.0,94,0.03,,,0.00,0.00,VWS V14.00,2013-03-09 06:00:00,
2013-03-09 00:01:00,35.3,33.8,30.07,SE,132,5.0,7.0,94,0.03,,-RA,0.00,0.00,VWS V14.00,2013-03-09 06:01:00,
2013-03-09 00:02:00,35.4,33.8,30.07,ESE,117,8.0,8.0,94,0.03,,-RA,0.00,0.00,VWS V14.00,2013-03-09 06:02:00,
2013-03-09 00:05:00,35.4,33.8,30.06,ESE,113,6.0,9.0,94,0.03,,,0.00,0.00,VWS V14.00,2013-03-09 06:05:00,
2013-03-09 00:06:00,35.6,34.0,30.07,ESE,123,6.0,8.0,94,0.03,,-RA,0.00,0.00,VWS V14.00,2013-03-09 06:06:00,
2013-03-09 00:07:00,35.6,34.0,30.07,SE,138,6.0,8.0,94,0.03,,-RA,0.00,0.00,VWS V14.00,2013-03-09 06:07:00,
2013-03-09 00:08:00,35.7,34.2,30.07,SE,130,5.0,8.0,94,0.03,,-RA,0.00,0.00,VWS V14.00,2013-03-09 06:08:00,
2013-03-09 00:10:00,35.7,34.2,30.07,East,100,6.0,8.0,94,0.03,,,0.00,0.00,VWS V14.00,2013-03-09 06:10:00,
2013-03-09 00:11:00,35.8,34.0,30.06,SE,142,5.0,8.0,93,0.03,,-RA,0.00,0.00,VWS V14.00,2013-03-09 06:11:00,
2013-03-09 00:12:00,35.9,34.1,30.06,ESE,118,6.0,8.0,93,0.03,,-RA,0.00,0.00,VWS V14.00,2013-03-09 06:12:00,
2013-03-09 00:13:00,35.9,34.1,30.06,SE,144,6.0,8.0,93,0.03,,-RA,0.00,0.00,VWS V14.00,2013-03-09 06:13:00,
2013-03-09 00:15:00,35.9,34.1,30.06,SSE,147,5.0,8.0,93,0.03,,,0.00,0.00,VWS V14.00,2013-03-09 06:15:00,
2013-03-09 00:17:00,35.9,34.1,30.06,SE,133,4.0,7.0,93,0.03,,-RA,0.00,0.00,VWS V14.00,2013-03-09 06:17:00,
2013-03-09 00:18:00,35.9,34.1,30.06,SE,133,4.0,7.0,93,0.03,,-RA,0.00,0.00,VWS V14.00,2013-03-09 06:18:00,
2013-03-09 00:20:00,35.9,34.1,30.06,SE,126,5.0,7.0,93,0.03,,,0.00,0.00,VWS V14.00,2013-03-09 06:20:00,
2013-03-09 00:22:00,35.9,34.1,30.06,SE,128,4.0,9.0,93,0.02,,RA,0.00,0.00,VWS V14.00,2013-03-09 06:22:00,
2013-03-09 00:23:00,35.9,34.1,30.06,SE,128,2.0,9.0,93,0.02,,RA,0.00,0.00,VWS V14.00,2013-03-09 06:23:00,
2013-03-09 00:25:00,35.9,34.1,30.06,SE,128,2.0,9.0,93,0.02,,,0.00,0.00,VWS V14.00,2013-03-09 06:25:00,
2013-03-09 00:28:00,35.8,34.0,30.05,ESE,117,4.0,6.0,93,0.02,,RA,0.00,0.00,VWS V14.00,2013-03-09 06:28:00,
2013-03-09 00:30:00,35.8,34.0,30.06,ESE,117,0.0,6.0,93,0.02,,,0.00,0.00,VWS V14.00,2013-03-09 06:30:00,
2013-03-09 00:33:00,35.7,33.9,30.06,SE,130,4.0,5.0,93,0.01,,RA,0.00,0.00,VWS V14.00,2013-03-09 06:33:00,
2013-03-09 00:34:00,35.7,33.9,30.06,ESE,105,2.0,4.0,93,0.01,,RA,0.00,0.00,VWS V14.00,2013-03-09 06:34:00,
2013-03-09 00:35:00,35.7,33.9,30.06,ESE,105,4.0,5.0,93,0.01,,,0.00,0.00,VWS V14.00,2013-03-09 06:35:00,
2013-03-09 00:38:00,35.6,33.8,30.05,ESE,103,2.0,4.0,93,0.01,,RA,0.00,0.00,VWS V14.00,2013-03-09 06:38:00,
2013-03-09 00:39:00,35.5,33.7,30.05,ESE,102,2.0,4.0,93,0.02,,RA,0.01,0.00,VWS V14.00,2013-03-09 06:39:00,
2013-03-09 00:40:00,35.5,33.7,30.05,ESE,102,5.0,5.0,93,0.02,,,0.01,0.00,VWS V14.00,2013-03-09 06:40:00,
2013-03-09 00:43:00,35.4,33.8,30.05,ESE,121,5.0,7.0,94,0.02,,OVC044,0.01,0.00,VWS V14.00,2013-03-09 06:43:00,
2013-03-09 00:44:00,35.4,33.8,30.05,ESE,119,4.0,4.0,94,0.01,,OVC044,0.01,0.00,VWS V14.00,2013-03-09 06:44:00,
2013-03-09 00:45:00,35.4,33.8,30.05,ESE,120,4.0,7.0,94,0.02,,,0.01,0.00,VWS V14.00,2013-03-09 06:45:00,
2013-03-09 00:48:00,35.4,33.8,30.05,ESE,107,4.0,6.0,94,0.02,,OVC044,0.02,0.00,VWS V14.00,2013-03-09 06:48:00,
2013-03-09 00:49:00,35.4,33.8,30.05,ESE,107,2.0,4.0,94,0.02,,OVC044,0.02,0.00,VWS V14.00,2013-03-09 06:49:00,
2013-03-09 00:50:00,35.4,33.8,30.05,ESE,107,4.0,6.0,94,0.02,,,0.02,0.00,VWS V14.00,2013-03-09 06:50:00,
2013-03-09 00:53:00,35.3,33.8,30.05,ESE,111,2.0,5.0,94,0.03,,OVC044,0.03,0.00,VWS V14.00,2013-03-09 06:53:00,
2013-03-09 00:54:00,35.3,33.8,30.05,ESE,112,2.0,5.0,94,0.03,,OVC044,0.03,0.00,VWS V14.00,2013-03-09 06:54:00,
2013-03-09 00:55:00,35.3,33.8,30.05,ESE,112,2.0,5.0,94,0.03,,,0.03,0.00,VWS V14.00,2013-03-09 06:55:00,
2013-03-09 00:58:00,35.3,33.8,30.04,East,100,0.0,5.0,94,0.03,,OVC044,0.03,0.00,VWS V14.00,2013-03-09 06:58:00,
2013-03-09 00:59:00,35.3,33.8,30.04,East,100,2.0,2.0,94,0.03,,OVC044,0.03,0.00,VWS V14.00,2013-03-09 06:59:00,
2013-03-09 01:00:00,35.3,33.8,30.04,East,100,2.0,5.0,94,0.03,,,0.03,0.00,VWS V14.00,2013-03-09 07:00:00,
2013-03-09 01:04:00,35.2,33.7,30.04,East,100,2.0,4.0,94,0.04,,-RA,0.04,0.00,VWS V14.00,2013-03-09 07:04:00,
2013-03-09 01:05:00,35.2,33.7,30.04,East,100,2.0,4.0,94,0.04,,,0.04,0.00,VWS V14.00,2013-03-09 07:05:00,
2013-03-09 01:09:00,35.3,33.8,30.04,ESE,123,2.0,4.0,94,0.04,,-RA,0.04,0.00,VWS V14.00,2013-03-09 07:09:00,
2013-03-09 01:10:00,35.3,34.0,30.04,ESE,123,2.0,4.0,95,0.04,,-RA,0.04,0.00,VWS V14.00,2013-03-09 07:10:00,
2013-03-09 01:14:00,35.3,34.0,30.03,ESE,107,0.0,0.0,95,0.04,,-RA,0.04,0.00,VWS V14.00,2013-03-09 07:14:00,
2013-03-09 01:15:00,35.3,34.0,30.03,East,97,4.0,6.0,95,0.04,,-RA,0.04,0.00,VWS V14.00,2013-03-09 07:15:00,
2013-03-09 01:19:00,35.3,34.0,30.03,ESE,107,2.0,6.0,95,0.04,,-RA,0.04,0.00,VWS V14.00,2013-03-09 07:19:00,
2013-03-09 01:20:00,35.3,34.0,30.03,ESE,102,2.0,6.0,95,0.04,,RA,0.04,0.00,VWS V14.00,2013-03-09 07:20:00,
2013-03-09 01:24:00,35.4,34.1,30.03,East,101,0.0,2.0,95,0.04,,RA,0.04,0.00,VWS V14.00,2013-03-09 07:24:00,
2013-03-09 01:25:00,35.4,34.1,30.03,East,101,1.0,2.0,95,0.04,,RA,0.04,0.00,VWS V14.00,2013-03-09 07:25:00,
2013-03-09 01:29:00,35.5,34.2,30.03,ESE,102,1.0,1.0,95,0.04,,RA,0.04,0.00,VWS V14.00,2013-03-09 07:29:00,
2013-03-09 01:30:00,35.5,34.2,30.03,East,101,1.0,2.0,95,0.04,,RA,0.04,0.00,VWS V14.00,2013-03-09 07:30:00,
2013-03-09 01:31:00,35.5,34.2,30.03,East,100,2.0,5.0,95,0.04,,RA,0.04,0.00,VWS V14.00,2013-03-09 07:31:00,
2013-03-09 01:34:00,35.5,34.2,30.03,East,100,2.0,2.0,95,0.04,,RA,0.04,0.00,VWS V14.00,2013-03-09 07:34:00,
2013-03-09 01:35:00,35.5,34.2,30.03,East,100,1.0,2.0,95,0.04,,RA,0.04,0.00,VWS V14.00,2013-03-09 07:35:00,
2013-03-09 01:36:00,35.5,34.2,30.03,East,100,1.0,4.0,95,0.04,,RA,0.04,0.00,VWS V14.00,2013-03-09 07:36:00,
2013-03-09 01:40:00,35.5,34.2,30.03,East,100,1.0,4.0,95,0.03,,-RA,0.04,0.00,VWS V14.00,2013-03-09 07:40:00,
2013-03-09 01:41:00,35.5,34.2,30.03,East,100,2.0,4.0,95,0.03,,-RA,0.04,0.00,VWS V14.00,2013-03-09 07:41:00,
2013-03-09 01:45:00,35.5,34.2,30.03,East,100,1.0,2.0,95,0.03,,-RA,0.04,0.00,VWS V14.00,2013-03-09 07:45:00,
2013-03-09 01:46:00,35.5,34.2,30.03,East,100,1.0,2.0,95,0.03,,-RA,0.04,0.00,VWS V14.00,2013-03-09 07:46:00,
2013-03-09 01:50:00,35.4,34.1,30.03,East,100,1.0,2.0,95,0.02,,-RA,0.04,0.00,VWS V14.00,2013-03-09 07:50:00,
2013-03-09 01:51:00,35.4,34.1,30.03,East,99,0.0,2.0,95,0.02,,-RA,0.04,0.00,VWS V14.00,2013-03-09 07:51:00,
2013-03-09 01:52:00,35.4,34.1,30.03,East,100,0.0,2.0,95,0.02,,-RA,0.04,0.00,VWS V14.00,2013-03-09 07:52:00,
2013-03-09 01:55:00,35.3,33.8,30.03,East,100,2.0,4.0,94,0.01,,-RA,0.04,0.00,VWS V14.00,2013-03-09 07:55:00,
2013-03-09 01:56:00,35.3,34.0,30.03,East,100,1.0,4.0,95,0.01,,-RA,0.04,0.00,VWS V14.00,2013-03-09 07:56:00,
2013-03-09 01:57:00,35.3,34.0,30.03,East,99,0.0,4.0,95,0.01,,-RA,0.04,0.00,VWS V14.00,2013-03-09 07:57:00,
2013-03-09 02:00:00,35.2,33.7,30.03,East,100,0.0,0.0,94,0.02,,-RA,0.05,0.00,VWS V14.00,2013-03-09 08:00:00,
2013-03-09 02:01:00,35.2,33.7,30.03,East,100,0.0,1.0,94,0.02,,OVC034,0.05,0.00,VWS V14.00,2013-03-09 08:01:00,
2013-03-09 02:02:00,35.1,33.5,30.03,East,100,1.0,1.0,94,0.02,,OVC034,0.05,0.00,VWS V14.00,2013-03-09 08:02:00,
2013-03-09 02:05:00,35.1,33.8,30.02,East,100,1.0,5.0,95,0.01,,OVC034,0.05,0.00,VWS V14.00,2013-03-09 08:05:00,
2013-03-09 02:06:00,35.0,33.7,30.02,East,100,4.0,5.0,95,0.01,,OVC034,0.05,0.00,VWS V14.00,2013-03-09 08:06:00,
2013-03-09 02:07:00,35.0,33.7,30.02,East,100,0.0,5.0,95,0.01,,OVC034,0.05,0.00,VWS V14.00,2013-03-09 08:07:00,
2013-03-09 02:10:00,34.9,33.6,30.02,East,100,0.0,2.0,95,0.01,,OVC034,0.05,0.00,VWS V14.00,2013-03-09 08:10:00,
2013-03-09 02:11:00,34.9,33.6,30.02,East,100,1.0,2.0,95,0.01,,OVC034,0.05,0.00,VWS V14.00,2013-03-09 08:11:00,
2013-03-09 02:12:00,34.8,33.5,30.02,East,100,0.0,2.0,95,0.01,,OVC034,0.05,0.00,VWS V14.00,2013-03-09 08:12:00,
2013-03-09 02:13:00,34.8,33.5,30.02,East,100,0.0,2.0,95,0.01,,OVC034,0.05,0.00,VWS V14.00,2013-03-09 08:13:00,
2013-03-09 02:15:00,34.8,33.5,30.03,East,100,0.0,0.0,95,0.01,,OVC034,0.05,0.00,VWS V14.00,2013-03-09 08:15:00,
2013-03-09 02:16:00,34.8,33.5,30.03,East,100,1.0,1.0,95,0.01,,OVC034,0.05,0.00,VWS V14.00,2013-03-09 08:16:00,
2013-03-09 02:17:00,34.8,33.5,30.03,East,100,0.0,1.0,95,0.01,,OVC034,0.05,0.00,VWS V14.00,2013-03-09 08:17:00,
2013-03-09 02:18:00,34.8,33.5,30.03,East,100,0.0,1.0,95,0.01,,OVC034,0.05,0.00,VWS V14.00,2013-03-09 08:18:00,
2013-03-09 02:20:00,34.8,33.5,30.03,East,100,0.0,1.0,95,0.01,,,0.05,0.00,VWS V14.00,2013-03-09 08:20:00,
2013-03-09 02:21:00,34.8,33.5,30.03,East,100,0.0,0.0,95,0.01,,-RA,0.05,0.00,VWS V14.00,2013-03-09 08:21:00,
2013-03-09 02:22:00,34.8,33.5,30.03,East,100,0.0,0.0,95,0.01,,-RA,0.05,0.00,VWS V14.00,2013-03-09 08:22:00,
2013-03-09 02:23:00,34.8,33.5,30.03,East,100,0.0,0.0,95,0.01,,-RA,0.05,0.00,VWS V14.00,2013-03-09 08:23:00,
2013-03-09 02:25:00,34.8,33.5,30.03,East,99,0.0,0.0,95,0.01,,,0.05,0.00,VWS V14.00,2013-03-09 08:25:00,
2013-03-09 02:26:00,34.9,33.6,30.02,East,100,0.0,1.0,95,0.01,,-RA,0.05,0.00,VWS V14.00,2013-03-09 08:26:00,
2013-03-09 02:27:00,34.9,33.6,30.02,East,100,2.0,4.0,95,0.01,,-RA,0.05,0.00,VWS V14.00,2013-03-09 08:27:00,
2013-03-09 02:28:00,34.9,33.6,30.02,East,99,1.0,4.0,95,0.01,,-RA,0.05,0.00,VWS V14.00,2013-03-09 08:28:00,
2013-03-09 02:30:00,34.9,33.6,30.02,East,100,2.0,4.0,95,0.01,,,0.05,0.00,VWS V14.00,2013-03-09 08:30:00,
2013-03-09 02:31:00,34.9,33.6,30.02,East,100,0.0,2.0,95,0.02,,-RA,0.06,0.00,VWS V14.00,2013-03-09 08:31:00,
2013-03-09 02:32:00,34.9,33.6,30.02,East,99,0.0,2.0,95,0.02,,-RA,0.06,0.00,VWS V14.00,2013-03-09 08:32:00,
2013-03-09 02:33:00,34.9,33.6,30.03,East,99,0.0,2.0,95,0.02,,-RA,0.06,0.00,VWS V14.00,2013-03-09 08:33:00,
2013-03-09 02:35:00,34.9,33.6,30.03,East,100,0.0,2.0,95,0.02,,,0.06,0.00,VWS V14.00,2013-03-09 08:35:00,
2013-03-09 02:36:00,34.9,33.6,30.02,East,99,1.0,1.0,95,0.02,,-RA,0.06,0.00,VWS V14.00,2013-03-09 08:36:00,
2013-03-09 02:37:00,34.9,33.6,30.02,East,100,1.0,2.0,95,0.02,,-RA,0.06,0.00,VWS V14.00,2013-03-09 08:37:00,
2013-03-09 02:38:00,35.0,33.7,30.02,East,100,0.0,2.0,95,0.02,,-RA,0.06,0.00,VWS V14.00,2013-03-09 08:38:00,
2013-03-09 02:40:00,35.0,33.7,30.02,East,100,0.0,2.0,95,0.02,,,0.06,0.00,VWS V14.00,2013-03-09 08:40:00,
2013-03-09 02:41:00,35.0,33.7,30.03,East,100,0.0,1.0,95,0.02,,OVC036,0.06,0.00,VWS V14.00,2013-03-09 08:41:00,
2013-03-09 02:42:00,35.0,33.7,30.03,East,100,0.0,1.0,95,0.02,,OVC036,0.06,0.00,VWS V14.00,2013-03-09 08:42:00,
2013-03-09 02:43:00,35.0,33.7,30.03,East,100,1.0,1.0,95,0.02,,OVC036,0.06,0.00,VWS V14.00,2013-03-09 08:43:00,
2013-03-09 02:45:00,35.0,33.7,30.03,East,100,0.0,1.0,95,0.02,,,0.06,0.00,VWS V14.00,2013-03-09 08:45:00,
2013-03-09 02:47:00,35.0,33.7,30.03,East,100,0.0,0.0,95,0.02,,OVC036,0.06,0.00,VWS V14.00,2013-03-09 08:47:00,
2013-03-09 02:48:00,35.0,33.7,30.03,East,100,0.0,1.0,95,0.02,,OVC036,0.06,0.00,VWS V14.00,2013-03-09 08:48:00,
2013-03-09 02:50:00,35.0,33.7,30.03,East,100,1.0,2.0,95,0.02,,,0.06,0.00,VWS V14.00,2013-03-09 08:50:00,
2013-03-09 02:52:00,35.0,33.7,30.02,East,100,1.0,2.0,95,0.02,,OVC036,0.06,0.00,VWS V14.00,2013-03-09 08:52:00,
2013-03-09 02:53:00,35.0,33.7,30.02,East,100,1.0,2.0,95,0.02,,OVC036,0.06,0.00,VWS V14.00,2013-03-09 08:53:00,
2013-03-09 02:54:00,35.0,33.7,30.02,East,99,0.0,2.0,95,0.02,,OVC036,0.06,0.00,VWS V14.00,2013-03-09 08:54:00,
2013-03-09 02:55:00,35.0,33.7,30.02,East,99,0.0,2.0,95,0.02,,,0.06,0.00,VWS V14.00,2013-03-09 08:55:00,
2013-03-09 02:57:00,34.9,33.6,30.02,East,100,2.0,4.0,95,0.05,,OVC036,0.09,0.00,VWS V14.00,2013-03-09 08:57:00,
2013-03-09 02:58:00,34.9,33.6,30.01,East,100,2.0,4.0,95,0.06,,OVC036,0.10,0.00,VWS V14.00,2013-03-09 08:58:00,
2013-03-09 02:59:00,34.9,33.6,30.01,East,100,0.0,4.0,95,0.07,,OVC036,0.11,0.00,VWS V14.00,2013-03-09 08:59:00,
2013-03-09 03:00:00,34.9,33.6,30.01,East,100,0.0,4.0,95,0.07,,,0.11,0.00,VWS V14.00,2013-03-09 09:00:00,
2013-03-09 03:02:00,34.8,33.5,30.02,ESE,102,1.0,4.0,95,0.08,,OVC036,0.13,0.00,VWS V14.00,2013-03-09 09:02:00,
2013-03-09 03:03:00,34.9,33.6,30.01,East,101,1.0,4.0,95,0.08,,OVC036,0.13,0.00,VWS V14.00,2013-03-09 09:03:00,
2013-03-09 03:04:00,34.9,33.6,30.01,East,101,5.0,5.0,95,0.09,,OVC036,0.14,0.00,VWS V14.00,2013-03-09 09:04:00,
2013-03-09 03:05:00,34.9,33.6,30.01,East,101,5.0,5.0,95,0.09,,,0.14,0.00,VWS V14.00,2013-03-09 09:05:00,
2013-03-09 03:07:00,34.9,33.6,30.01,East,101,2.0,5.0,95,0.10,,OVC036,0.15,0.00,VWS V14.00,2013-03-09 09:07:00,
2013-03-09 03:08:00,34.9,33.9,30.01,East,101,1.0,5.0,96,0.10,,OVC036,0.15,0.00,VWS V14.00,2013-03-09 09:08:00,
2013-03-09 03:09:00,35.0,34.0,30.01,East,101,1.0,1.0,96,0.12,,OVC036,0.17,0.00,VWS V14.00,2013-03-09 09:09:00,
2013-03-09 03:10:00,35.0,34.0,30.01,East,101,1.0,5.0,96,0.11,,,0.16,0.00,VWS V14.00,2013-03-09 09:10:00,
2013-03-09 03:12:00,35.0,34.0,30.01,ESE,105,5.0,5.0,96,0.12,,OVC036,0.17,0.00,VWS V14.00,2013-03-09 09:12:00,
2013-03-09 03:13:00,35.0,34.0,30.01,SE,127,5.0,6.0,96,0.13,,OVC036,0.18,0.00,VWS V14.00,2013-03-09 09:13:00,
2013-03-09 03:14:00,35.0,34.0,30.01,SE,136,4.0,5.0,96,0.14,,OVC036,0.19,0.00,VWS V14.00,2013-03-09 09:14:00,
2013-03-09 03:15:00,35.0,34.0,30.01,SE,134,5.0,6.0,96,0.13,,,0.18,0.00,VWS V14.00,2013-03-09 09:15:00,
2013-03-09 03:18:00,35.1,34.1,30.01,SE,134,5.0,5.0,96,0.16,,OVC036,0.21,0.00,VWS V14.00,2013-03-09 09:18:00,
2013-03-09 03:19:00,35.1,34.1,30.01,SE,127,5.0,6.0,96,0.16,,OVC036,0.21,0.00,VWS V14.00,2013-03-09 09:19:00,
2013-03-09 03:20:00,35.1,34.1,30.01,SE,129,5.0,6.0,96,0.16,,,0.21,0.00,VWS V14.00,2013-03-09 09:20:00,
2013-03-09 03:23:00,35.2,34.2,30.00,SE,136,5.0,8.0,96,0.18,, +RA,0.23,0.00,VWS V14.00,2013-03-09 09:23:00,
2013-03-09 03:24:00,35.2,34.2,30.00,ESE,115,6.0,6.0,96,0.20,, +RA,0.25,0.00,VWS V14.00,2013-03-09 09:24:00,
2013-03-09 03:25:00,35.2,34.2,30.00,SE,128,5.0,8.0,96,0.19,,,0.24,0.00,VWS V14.00,2013-03-09 09:25:00,
2013-03-09 03:28:00,35.3,34.3,30.00,SE,130,4.0,6.0,96,0.21,, +RA,0.26,0.00,VWS V14.00,2013-03-09 09:28:00,
2013-03-09 03:29:00,35.3,34.3,30.00,SE,127,4.0,4.0,96,0.21,, +RA,0.26,0.00,VWS V14.00,2013-03-09 09:29:00,
2013-03-09 03:30:00,35.3,34.3,30.00,SE,127,4.0,6.0,96,0.21,,,0.26,0.00,VWS V14.00,2013-03-09 09:30:00,
2013-03-09 03:33:00,35.4,34.4,30.00,ESE,113,4.0,5.0,96,0.21,, +RA,0.26,0.00,VWS V14.00,2013-03-09 09:33:00,
2013-03-09 03:35:00,35.4,34.4,30.00,SE,134,2.0,5.0,96,0.21,, +RA,0.27,0.00,VWS V14.00,2013-03-09 09:35:00,
2013-03-09 03:38:00,35.5,34.5,30.00,SE,130,4.0,5.0,96,0.22,, +RA,0.28,0.00,VWS V14.00,2013-03-09 09:38:00,
2013-03-09 03:40:00,35.5,34.5,30.00,SE,130,2.0,5.0,96,0.27,,,0.33,0.00,VWS V14.00,2013-03-09 09:40:00,
2013-03-09 03:43:00,35.5,34.5,30.00,SE,130,0.0,5.0,96,0.31,,,0.37,0.00,VWS V14.00,2013-03-09 09:43:00,
2013-03-09 03:44:00,35.5,34.5,30.00,SE,130,2.0,5.0,96,0.31,,,0.37,0.00,VWS V14.00,2013-03-09 09:44:00,
2013-03-09 03:45:00,35.5,34.5,30.00,SE,130,2.0,2.0,96,0.33,,,0.39,0.00,VWS V14.00,2013-03-09 09:45:00,
2013-03-09 03:48:00,35.5,34.5,29.99,East,90,2.0,5.0,96,0.34,,,0.40,0.00,VWS V14.00,2013-03-09 09:48:00,
2013-03-09 03:49:00,35.5,34.5,29.99,East,90,1.0,2.0,96,0.34,,,0.40,0.00,VWS V14.00,2013-03-09 09:49:00,
2013-03-09 03:50:00,35.5,34.5,29.99,East,90,2.0,5.0,96,0.34,,,0.40,0.00,VWS V14.00,2013-03-09 09:50:00,
2013-03-09 03:51:00,35.5,34.5,29.99,ESE,105,2.0,5.0,96,0.35,,,0.41,0.00,VWS V14.00,2013-03-09 09:51:00,
2013-03-09 03:53:00,35.5,34.5,29.98,ESE,105,2.0,5.0,96,0.35,,,0.41,0.00,VWS V14.00,2013-03-09 09:53:00,
2013-03-09 03:54:00,35.5,34.5,29.98,ESE,105,2.0,4.0,96,0.35,,,0.41,0.00,VWS V14.00,2013-03-09 09:54:00,
2013-03-09 03:55:00,35.6,34.6,29.98,ESE,105,4.0,5.0,96,0.35,,,0.41,0.00,VWS V14.00,2013-03-09 09:55:00,
2013-03-09 03:56:00,35.6,34.6,29.98,North,360,3.0,6.0,96,0.35,,,0.41,0.00,VWS V14.00,2013-03-09 09:56:00,
2013-03-09 03:58:00,35.6,34.6,29.98,ESE,107,4.0,6.0,96,0.35,,,0.41,0.00,VWS V14.00,2013-03-09 09:58:00,
2013-03-09 03:59:00,35.6,34.6,29.98,ESE,111,5.0,5.0,96,0.30,,,0.41,0.00,VWS V14.00,2013-03-09 09:59:00,
2013-03-09 04:00:00,35.6,34.6,29.98,ESE,108,4.0,6.0,96,0.35,,,0.41,0.00,VWS V14.00,2013-03-09 10:00:00,
2013-03-09 04:01:00,35.6,34.6,29.98,ESE,115,5.0,6.0,96,0.30,,-RA,0.41,0.00,VWS V14.00,2013-03-09 10:01:00,
2013-03-09 04:04:00,35.5,34.5,29.98,East,86,3.0,3.0,96,0.28,,-RA,0.42,0.00,VWS V14.00,2013-03-09 10:04:00,
2013-03-09 04:05:00,35.5,34.5,29.98,ENE,72,3.0,6.0,96,0.31,,,0.42,0.00,VWS V14.00,2013-03-09 10:05:00,
2013-03-09 04:06:00,35.5,34.5,29.98,SE,134,4.0,5.0,96,0.28,,-RA,0.42,0.00,VWS V14.00,2013-03-09 10:06:00,
2013-03-09 04:09:00,35.4,34.4,29.98,ESE,118,2.0,4.0,96,0.26,,-RA,0.42,0.00,VWS V14.00,2013-03-09 10:09:00,
2013-03-09 04:10:00,35.4,34.4,29.98,SE,134,4.0,4.0,96,0.26,,-RA,0.42,0.00,VWS V14.00,2013-03-09 10:10:00,
2013-03-09 04:11:00,35.4,34.4,29.98,ESE,111,5.0,5.0,96,0.26,,-RA,0.42,0.00,VWS V14.00,2013-03-09 10:11:00,
2013-03-09 04:14:00,35.3,34.3,29.98,ESE,121,5.0,7.0,96,0.24,,-RA,0.42,0.00,VWS V14.00,2013-03-09 10:14:00,
2013-03-09 04:15:00,35.3,34.3,29.98,ESE,121,4.0,7.0,96,0.24,,-RA,0.42,0.00,VWS V14.00,2013-03-09 10:15:00,
2013-03-09 04:16:00,35.3,34.3,29.98,ESE,106,2.0,7.0,96,0.24,,-RA,0.42,0.00,VWS V14.00,2013-03-09 10:16:00,
2013-03-09 04:19:00,35.3,34.3,29.97,SE,126,5.0,6.0,96,0.21,,-RA,0.42,0.00,VWS V14.00,2013-03-09 10:19:00,
2013-03-09 04:20:00,35.3,34.3,29.98,SE,133,6.0,6.0,96,0.21,,,0.42,0.00,VWS V14.00,2013-03-09 10:20:00,
2013-03-09 04:21:00,35.3,34.3,29.97,ESE,123,6.0,6.0,96,0.21,,,0.42,0.00,VWS V14.00,2013-03-09 10:21:00,
2013-03-09 04:25:00,35.3,34.3,29.97,SE,131,5.0,11.0,96,0.18,,,0.42,0.00,VWS V14.00,2013-03-09 10:25:00,
2013-03-09 04:26:00,35.3,34.3,29.97,SE,130,5.0,11.0,96,0.18,,,0.42,0.00,VWS V14.00,2013-03-09 10:26:00,
2013-03-09 04:30:00,35.4,34.4,29.97,SE,126,6.0,12.0,96,0.16,,,0.42,0.00,VWS V14.00,2013-03-09 10:30:00,
2013-03-09 04:31:00,35.5,34.5,29.97,ESE,116,8.0,12.0,96,0.16,,,0.42,0.00,VWS V14.00,2013-03-09 10:31:00,
2013-03-09 04:35:00,35.5,34.5,29.97,ESE,107,6.0,8.0,96,0.16,,,0.42,0.00,VWS V14.00,2013-03-09 10:35:00,
2013-03-09 04:36:00,35.5,34.5,29.97,SE,132,8.0,10.0,96,0.16,,,0.42,0.00,VWS V14.00,2013-03-09 10:36:00,
2013-03-09 04:40:00,35.6,34.6,29.97,SE,137,6.0,12.0,96,0.16,,,0.42,0.00,VWS V14.00,2013-03-09 10:40:00,
2013-03-09 04:41:00,35.5,34.5,29.96,SE,126,8.0,8.0,96,0.13,,,0.42,0.00,VWS V14.00,2013-03-09 10:41:00,
2013-03-09 04:42:00,35.6,34.6,29.96,East,101,8.0,9.0,96,0.13,,,0.42,0.00,VWS V14.00,2013-03-09 10:42:00,
2013-03-09 04:45:00,35.6,34.6,29.96,SE,125,7.0,11.0,96,0.13,,,0.42,0.00,VWS V14.00,2013-03-09 10:45:00,
2013-03-09 04:46:00,35.6,34.6,29.96,SE,144,7.0,8.0,96,0.05,,,0.42,0.00,VWS V14.00,2013-03-09 10:46:00,
2013-03-09 04:47:00,35.7,34.7,29.96,SE,132,6.0,8.0,96,0.05,,,0.42,0.00,VWS V14.00,2013-03-09 10:47:00,
2013-03-09 04:50:00,35.6,34.6,29.96,SSE,162,5.0,8.0,96,0.05,,,0.42,0.00,VWS V14.00,2013-03-09 10:50:00,
2013-03-09 04:51:00,35.6,34.6,29.96,SE,128,6.0,8.0,96,0.02,,,0.42,0.00,VWS V14.00,2013-03-09 10:51:00,
2013-03-09 04:52:00,35.7,34.7,29.96,SE,144,9.0,9.0,96,0.02,,,0.42,0.00,VWS V14.00,2013-03-09 10:52:00,
2013-03-09 04:55:00,35.7,34.7,29.96,SSE,162,6.0,9.0,96,0.02,,,0.42,0.00,VWS V14.00,2013-03-09 10:55:00,
2013-03-09 04:56:00,35.7,34.7,29.96,ESE,109,7.0,11.0,96,0.01,,,0.42,0.00,VWS V14.00,2013-03-09 10:56:00,
2013-03-09 04:57:00,35.7,34.7,29.96,South,188,4.0,11.0,96,0.01,,,0.42,0.00,VWS V14.00,2013-03-09 10:57:00,
2013-03-09 05:00:00,35.7,34.7,29.96,SE,134,7.0,11.0,96,0.01,,,0.42,0.00,VWS V14.00,2013-03-09 11:00:00,
2013-03-09 05:01:00,35.7,34.7,29.95,SE,134,5.0,8.0,96,0.01,,,0.42,0.00,VWS V14.00,2013-03-09 11:01:00,
2013-03-09 05:02:00,35.7,34.7,29.95,ESE,116,4.0,8.0,96,0.01,,,0.42,0.00,VWS V14.00,2013-03-09 11:02:00,
2013-03-09 05:03:00,35.7,34.7,29.95,ESE,114,4.0,8.0,96,0.01,,,0.42,0.00,VWS V14.00,2013-03-09 11:03:00,
2013-03-09 05:05:00,35.7,34.7,29.95,SE,142,4.0,8.0,96,0.01,,,0.42,0.00,VWS V14.00,2013-03-09 11:05:00,
2013-03-09 05:07:00,35.7,34.7,29.95,SE,126,8.0,9.0,96,0.00,,,0.42,0.00,VWS V14.00,2013-03-09 11:07:00,
2013-03-09 05:08:00,35.7,34.7,29.95,SE,144,4.0,9.0,96,0.00,,,0.42,0.00,VWS V14.00,2013-03-09 11:08:00,
2013-03-09 05:10:00,35.7,34.7,29.95,ESE,109,8.0,9.0,96,0.00,,,0.42,0.00,VWS V14.00,2013-03-09 11:10:00,
2013-03-09 05:12:00,35.7,34.7,29.95,SE,142,6.0,8.0,96,0.00,,,0.42,0.00,VWS V14.00,2013-03-09 11:12:00,
2013-03-09 05:13:00,35.7,34.7,29.95,East,97,7.0,8.0,96,0.00,,,0.42,0.00,VWS V14.00,2013-03-09 11:13:00,
2013-03-09 05:15:00,35.7,34.7,29.95,SE,136,5.0,8.0,96,0.00,,,0.42,0.00,VWS V14.00,2013-03-09 11:15:00,
2013-03-09 05:17:00,35.7,34.7,29.95,SE,129,11.0,11.0,96,0.00,,,0.42,0.00,VWS V14.00,2013-03-09 11:17:00,
2013-03-09 05:18:00,35.7,34.7,29.95,ESE,107,7.0,12.0,96,0.00,,,0.42,0.00,VWS V14.00,2013-03-09 11:18:00,
2013-03-09 05:20:00,35.8,34.8,29.95,SE,138,6.0,12.0,96,0.00,,,0.42,0.00,VWS V14.00,2013-03-09 11:20:00,
2013-03-09 05:22:00,35.8,34.8,29.95,ESE,114,6.0,13.0,96,0.00,,,0.42,0.00,VWS V14.00,2013-03-09 11:22:00,
2013-03-09 05:23:00,35.8,34.8,29.95,SE,141,6.0,13.0,96,0.00,,,0.42,0.00,VWS V14.00,2013-03-09 11:23:00,
2013-03-09 05:25:00,35.8,34.8,29.94,SE,138,6.0,13.0,96,0.00,,,0.42,0.00,VWS V14.00,2013-03-09 11:25:00,
2013-03-09 05:27:00,35.9,34.9,29.95,SE,141,6.0,11.0,96,0.00,,,0.42,0.00,VWS V14.00,2013-03-09 11:27:00,
2013-03-09 05:28:00,35.9,34.9,29.95,SE,129,5.0,11.0,96,0.00,,,0.42,0.00,VWS V14.00,2013-03-09 11:28:00,
2013-03-09 05:30:00,35.9,35.1,29.95,SE,132,9.0,11.0,97,0.00,,,0.42,0.00,VWS V14.00,2013-03-09 11:30:00,
2013-03-09 05:32:00,35.9,35.1,29.95,SE,132,5.0,11.0,97,0.00,,,0.42,0.00,VWS V14.00,2013-03-09 11:32:00,
2013-03-09 05:33:00,36.0,35.2,29.95,SE,127,6.0,11.0,97,0.00,,,0.42,0.00,VWS V14.00,2013-03-09 11:33:00,
2013-03-09 05:34:00,36.0,35.2,29.95,SE,138,7.0,11.0,97,0.00,,,0.42,0.00,VWS V14.00,2013-03-09 11:34:00,
2013-03-09 05:35:00,36.0,35.2,29.95,SE,132,6.0,11.0,97,0.00,,,0.42,0.00,VWS V14.00,2013-03-09 11:35:00,
2013-03-09 05:37:00,36.0,35.0,29.94,SE,134,7.0,9.0,96,0.00,,,0.42,0.00,VWS V14.00,2013-03-09 11:37:00,
2013-03-09 05:38:00,36.0,35.2,29.94,SE,133,5.0,9.0,97,0.00,,,0.42,0.00,VWS V14.00,2013-03-09 11:38:00,
2013-03-09 05:39:00,36.0,35.2,29.94,SSE,147,5.0,9.0,97,0.00,,,0.42,0.00,VWS V14.00,2013-03-09 11:39:00,
2013-03-09 05:40:00,36.0,35.2,29.94,SE,136,5.0,9.0,97,0.00,,,0.42,0.00,VWS V14.00,2013-03-09 11:40:00,
2013-03-09 05:42:00,36.1,35.3,29.94,SE,141,4.0,11.0,97,0.00,,,0.42,0.00,VWS V14.00,2013-03-09 11:42:00,
2013-03-09 05:43:00,36.1,35.3,29.94,SE,127,5.0,11.0,97,0.00,,,0.42,0.00,VWS V14.00,2013-03-09 11:43:00,
2013-03-09 05:44:00,36.1,35.3,29.94,ESE,120,5.0,11.0,97,0.00,,,0.42,0.00,VWS V14.00,2013-03-09 11:44:00,
2013-03-09 05:45:00,36.1,35.3,29.94,ESE,120,5.0,11.0,97,0.00,,,0.42,0.00,VWS V14.00,2013-03-09 11:45:00,
2013-03-09 05:47:00,36.1,35.3,29.93,ESE,121,6.0,12.0,97,0.00,,,0.42,0.00,VWS V14.00,2013-03-09 11:47:00,
2013-03-09 05:48:00,36.2,35.4,29.93,ESE,119,8.0,12.0,97,0.00,,,0.42,0.00,VWS V14.00,2013-03-09 11:48:00,
2013-03-09 05:49:00,36.2,35.2,29.93,SE,140,7.0,7.0,96,0.00,,,0.42,0.00,VWS V14.00,2013-03-09 11:49:00,
2013-03-09 05:50:00,36.2,35.2,29.93,SE,129,5.0,12.0,96,0.00,,,0.42,0.00,VWS V14.00,2013-03-09 11:50:00,
2013-03-09 05:52:00,36.3,35.3,29.93,ESE,122,5.0,7.0,96,0.00,,,0.42,0.00,VWS V14.00,2013-03-09 11:52:00,
2013-03-09 05:53:00,36.3,35.3,29.93,SE,132,5.0,7.0,96,0.00,,,0.42,0.00,VWS V14.00,2013-03-09 11:53:00,
2013-03-09 05:54:00,36.3,35.3,29.93,SE,134,7.0,7.0,96,0.00,,,0.42,0.00,VWS V14.00,2013-03-09 11:54:00,
2013-03-09 05:55:00,36.3,35.3,29.93,SE,134,7.0,7.0,96,0.00,,,0.42,0.00,VWS V14.00,2013-03-09 11:55:00,
2013-03-09 05:57:00,36.3,35.3,29.93,SE,137,7.0,9.0,96,0.00,,,0.42,0.00,VWS V14.00,2013-03-09 11:57:00,
2013-03-09 05:58:00,36.3,35.3,29.93,SE,133,5.0,9.0,96,0.00,,,0.42,0.00,VWS V14.00,2013-03-09 11:58:00,
2013-03-09 05:59:00,36.4,35.4,29.93,ESE,119,6.0,7.0,96,0.00,,,0.42,0.00,VWS V14.00,2013-03-09 11:59:00,
2013-03-09 06:00:00,36.4,35.4,29.93,SE,143,7.0,9.0,96,0.00,,,0.42,0.00,VWS V14.00,2013-03-09 12:00:00,
2013-03-09 06:02:00,36.4,35.4,29.93,SE,126,5.0,12.0,96,0.00,,,0.42,0.00,VWS V14.00,2013-03-09 12:02:00,
2013-03-09 06:03:00,36.4,35.4,29.93,SE,134,6.0,12.0,96,0.00,,,0.42,0.00,VWS V14.00,2013-03-09 12:03:00,
2013-03-09 06:04:00,36.4,35.4,29.93,SE,139,6.0,7.0,96,0.00,,,0.42,0.00,VWS V14.00,2013-03-09 12:04:00,
2013-03-09 06:05:00,36.4,35.4,29.93,ESE,120,7.0,12.0,96,0.00,,,0.42,0.00,VWS V14.00,2013-03-09 12:05:00,
2013-03-09 06:07:00,36.4,35.6,29.93,ESE,120,5.0,8.0,97,0.00,,,0.42,0.00,VWS V14.00,2013-03-09 12:07:00,
2013-03-09 06:08:00,36.4,35.4,29.93,SSE,155,8.0,8.0,96,0.00,,,0.42,0.00,VWS V14.00,2013-03-09 12:08:00,
2013-03-09 06:09:00,36.4,35.6,29.93,SE,128,6.0,9.0,97,0.00,,,0.42,0.00,VWS V14.00,2013-03-09 12:09:00,
2013-03-09 06:10:00,36.4,35.6,29.93,SE,136,8.0,8.0,97,0.00,,,0.42,0.00,VWS V14.00,2013-03-09 12:10:00,
2013-03-09 06:13:00,36.5,35.7,29.93,ESE,119,6.0,12.0,97,0.00,,,0.42,0.00,VWS V14.00,2013-03-09 12:13:00,
2013-03-09 06:14:00,36.5,35.7,29.93,SE,146,6.0,7.0,97,0.00,,,0.42,0.00,VWS V14.00,2013-03-09 12:14:00,
2013-03-09 06:15:00,36.5,35.7,29.93,ESE,118,12.0,12.0,97,0.00,,,0.42,0.00,VWS V14.00,2013-03-09 12:15:00,
2013-03-09 06:18:00,36.5,35.5,29.93,SE,139,8.0,12.0,96,0.00,,,0.42,0.00,VWS V14.00,2013-03-09 12:18:00,
2013-03-09 06:19:00,36.5,35.5,29.93,SE,137,8.0,8.0,96,0.00,,,0.42,0.00,VWS V14.00,2013-03-09 12:19:00,
2013-03-09 06:20:00,36.5,35.5,29.93,SSE,159,2.0,8.0,96,0.00,,,0.42,0.00,VWS V14.00,2013-03-09 12:20:00,
2013-03-09 06:23:00,36.5,35.5,29.93,ESE,121,6.0,9.0,96,0.00,,,0.42,0.00,VWS V14.00,2013-03-09 12:23:00,
2013-03-09 06:24:00,36.5,35.5,29.93,SE,142,8.0,8.0,96,0.00,,,0.42,0.00,VWS V14.00,2013-03-09 12:24:00,
2013-03-09 06:25:00,36.6,35.6,29.92,ESE,117,8.0,12.0,96,0.00,,,0.42,0.00,VWS V14.00,2013-03-09 12:25:00,
2013-03-09 06:28:00,36.6,35.6,29.92,SE,135,7.0,12.0,96,0.00,,,0.42,0.00,VWS V14.00,2013-03-09 12:28:00,
2013-03-09 06:29:00,36.6,35.6,29.92,SE,145,6.0,7.0,96,0.00,,,0.42,0.00,VWS V14.00,2013-03-09 12:29:00,
2013-03-09 06:30:00,36.6,35.6,29.93,ESE,118,7.0,9.0,96,0.00,,,0.42,0.00,VWS V14.00,2013-03-09 12:30:00,
2013-03-09 06:34:00,36.6,35.6,29.92,SE,146,2.0,12.0,96,0.00,,,0.42,0.00,VWS V14.00,2013-03-09 12:34:00,
2013-03-09 06:35:00,36.6,35.6,29.92,SE,130,7.0,7.0,96,0.00,,,0.42,0.00,VWS V14.00,2013-03-09 12:35:00,
2013-03-09 06:39:00,36.6,35.6,29.93,SE,137,7.0,9.0,96,0.00,,,0.42,0.00,VWS V14.00,2013-03-09 12:39:00,
2013-03-09 06:40:00,36.6,35.6,29.93,SE,125,7.0,7.0,96,0.00,,,0.42,0.00,VWS V14.00,2013-03-09 12:40:00,
2013-03-09 06:41:00,36.6,35.6,29.93,SSE,150,5.0,7.0,96,0.00,,,0.42,0.00,VWS V14.00,2013-03-09 12:41:00,
2013-03-09 06:44:00,36.6,35.6,29.92,SSE,157,5.0,8.0,96,0.00,,,0.42,0.00,VWS V14.00,2013-03-09 12:44:00,
2013-03-09 06:45:00,36.6,35.6,29.92,SE,140,8.0,9.0,96,0.00,,,0.42,0.00,VWS V14.00,2013-03-09 12:45:00,
2013-03-09 06:46:00,36.6,35.6,29.92,SSE,157,6.0,9.0,96,0.00,,,0.42,0.00,VWS V14.00,2013-03-09 12:46:00,
2013-03-09 06:49:00,36.6,35.6,29.92,SE,126,4.0,9.0,96,0.00,,,0.42,0.00,VWS V14.00,2013-03-09 12:49:00,
2013-03-09 06:50:00,36.6,35.6,29.92,SE,126,4.0,9.0,96,0.00,,,0.42,0.00,VWS V14.00,2013-03-09 12:50:00,
2013-03-09 06:51:00,36.6,35.6,29.92,SSE,167,6.0,8.0,96,0.00,,,0.42,5.00,VWS V14.00,2013-03-09 12:51:00,
2013-03-09 06:54:00,36.7,35.7,29.91,SE,144,7.0,12.0,96,0.00,,,0.42,7.00,VWS V14.00,2013-03-09 12:54:00,
2013-03-09 06:55:00,36.7,35.7,29.91,SE,144,7.0,12.0,96,0.00,,,0.42,7.00,VWS V14.00,2013-03-09 12:55:00,
2013-03-09 06:56:00,36.8,35.8,29.91,SSE,167,6.0,12.0,96,0.00,,,0.42,7.00,VWS V14.00,2013-03-09 12:56:00,
2013-03-09 06:59:00,36.9,35.9,29.91,SE,134,7.0,7.0,96,0.00,,,0.42,9.00,VWS V14.00,2013-03-09 12:59:00,
2013-03-09 07:00:00,36.9,35.9,29.91,SE,126,7.0,13.0,96,0.00,,,0.42,9.00,VWS V14.00,2013-03-09 13:00:00,
2013-03-09 07:01:00,36.9,35.9,29.91,SE,131,7.0,9.0,96,0.00,,,0.42,11.00,VWS V14.00,2013-03-09 13:01:00,
2013-03-09 07:04:00,37.0,36.0,29.91,SE,136,9.0,9.0,96,0.00,,,0.42,12.00,VWS V14.00,2013-03-09 13:04:00,
2013-03-09 07:05:00,37.1,36.1,29.91,South,187,6.0,14.0,96,0.00,,,0.42,12.00,VWS V14.00,2013-03-09 13:05:00,
2013-03-09 07:06:00,37.1,36.1,29.90,SE,135,7.0,11.0,96,0.00,,,0.42,12.00,VWS V14.00,2013-03-09 13:06:00,
2013-03-09 07:09:00,37.2,36.2,29.90,SE,140,7.0,8.0,96,0.00,,,0.42,14.00,VWS V14.00,2013-03-09 13:09:00,
2013-03-09 07:10:00,37.2,36.2,29.90,ESE,119,8.0,15.0,96,0.00,,,0.42,14.00,VWS V14.00,2013-03-09 13:10:00,
2013-03-09 07:11:00,37.2,36.2,29.90,SE,140,9.0,14.0,96,0.00,,,0.42,18.00,VWS V14.00,2013-03-09 13:11:00,
2013-03-09 07:14:00,37.3,36.3,29.90,SE,146,7.0,9.0,96,0.00,,,0.42,16.00,VWS V14.00,2013-03-09 13:14:00,
2013-03-09 07:15:00,37.3,36.3,29.90,SE,138,9.0,16.0,96,0.00,,,0.42,16.00,VWS V14.00,2013-03-09 13:15:00,
2013-03-09 07:16:00,37.3,36.3,29.90,SE,142,6.0,11.0,96,0.00,,,0.42,12.00,VWS V14.00,2013-03-09 13:16:00,
2013-03-09 07:17:00,37.4,36.4,29.90,SE,128,6.0,11.0,96,0.00,,,0.42,12.00,VWS V14.00,2013-03-09 13:17:00,
2013-03-09 07:19:00,37.4,36.4,29.90,SSE,161,7.0,11.0,96,0.00,,,0.42,12.00,VWS V14.00,2013-03-09 13:19:00,
2013-03-09 07:20:00,37.4,36.4,29.90,SSE,147,8.0,11.0,96,0.00,,,0.42,12.00,VWS V14.00,2013-03-09 13:20:00,
2013-03-09 07:21:00,37.4,36.4,29.90,SSE,153,8.0,11.0,96,0.00,,,0.42,12.00,VWS V14.00,2013-03-09 13:21:00,
2013-03-09 07:22:00,37.4,36.4,29.90,SSE,154,5.0,11.0,96,0.00,,,0.42,11.00,VWS V14.00,2013-03-09 13:22:00,
2013-03-09 07:25:00,37.4,36.1,29.91,SE,144,10.0,11.0,95,0.00,,,0.42,9.00,VWS V14.00,2013-03-09 13:25:00,
2013-03-09 07:26:00,37.4,36.1,29.91,SE,130,6.0,11.0,95,0.00,,,0.42,7.00,VWS V14.00,2013-03-09 13:26:00,
2013-03-09 07:27:00,37.4,36.1,29.91,SSE,153,8.0,11.0,95,0.00,,,0.42,7.00,VWS V14.00,2013-03-09 13:27:00,
2013-03-09 07:30:00,37.4,36.1,29.91,SSE,148,5.0,11.0,95,0.00,,,0.42,11.00,VWS V14.00,2013-03-09 13:30:00,
2013-03-09 07:31:00,37.4,36.1,29.91,SSE,161,7.0,11.0,95,0.00,,,0.42,12.00,VWS V14.00,2013-03-09 13:31:00,
2013-03-09 07:32:00,37.4,36.1,29.91,SE,127,5.0,11.0,95,0.00,,,0.42,12.00,VWS V14.00,2013-03-09 13:32:00,
2013-03-09 07:33:00,37.4,36.1,29.90,SE,127,5.0,11.0,95,0.00,,,0.42,14.00,VWS V14.00,2013-03-09 13:33:00,
2013-03-09 07:35:00,37.4,36.1,29.90,SE,144,8.0,10.0,95,0.00,,,0.42,14.00,VWS V14.00,2013-03-09 13:35:00,
2013-03-09 07:36:00,37.5,36.2,29.90,SE,144,6.0,12.0,95,0.00,,,0.42,14.00,VWS V14.00,2013-03-09 13:36:00,
2013-03-09 07:37:00,37.5,36.2,29.90,SE,140,5.0,12.0,95,0.00,,,0.42,12.00,VWS V14.00,2013-03-09 13:37:00,
2013-03-09 07:38:00,37.5,36.2,29.90,SSE,148,8.0,12.0,95,0.00,,,0.42,12.00,VWS V14.00,2013-03-09 13:38:00,
2013-03-09 07:40:00,37.5,36.2,29.91,SE,144,9.0,10.0,95,0.00,,,0.42,9.00,VWS V14.00,2013-03-09 13:40:00,
2013-03-09 07:42:00,37.5,36.2,29.91,SSE,161,5.0,10.0,95,0.00,,,0.42,9.00,VWS V14.00,2013-03-09 13:42:00,
2013-03-09 07:43:00,37.5,36.2,29.91,SE,137,8.0,10.0,95,0.00,,,0.42,9.00,VWS V14.00,2013-03-09 13:43:00,
2013-03-09 07:45:00,37.5,36.2,29.91,SE,135,8.0,9.0,95,0.00,,,0.42,7.00,VWS V14.00,2013-03-09 13:45:00,
2013-03-09 07:47:00,37.5,36.5,29.91,SE,144,5.0,9.0,96,0.00,,,0.42,9.00,VWS V14.00,2013-03-09 13:47:00,
2013-03-09 07:48:00,37.5,36.2,29.91,SE,139,6.0,9.0,95,0.00,,,0.42,9.00,VWS V14.00,2013-03-09 13:48:00,
2013-03-09 07:49:00,37.5,36.5,29.91,SE,143,6.0,10.0,96,0.00,,,0.42,9.00,VWS V14.00,2013-03-09 13:49:00,
2013-03-09 07:50:00,37.5,36.2,29.91,SE,132,11.0,11.0,95,0.00,,,0.42,12.00,VWS V14.00,2013-03-09 13:50:00,
2013-03-09 07:52:00,37.6,36.3,29.91,SE,140,9.0,13.0,95,0.00,,,0.42,12.00,VWS V14.00,2013-03-09 13:52:00,
2013-03-09 07:53:00,37.6,36.3,29.91,SSE,152,9.0,13.0,95,0.00,,,0.42,18.00,VWS V14.00,2013-03-09 13:53:00,
2013-03-09 07:54:00,37.6,36.3,29.90,SE,134,8.0,13.0,95,0.00,,,0.42,14.00,VWS V14.00,2013-03-09 13:54:00,
2013-03-09 07:55:00,37.6,36.6,29.90,SE,144,7.0,8.0,96,0.00,,,0.42,18.00,VWS V14.00,2013-03-09 13:55:00,
2013-03-09 07:57:00,37.6,36.3,29.90,SE,135,7.0,10.0,95,0.00,,,0.42,19.00,VWS V14.00,2013-03-09 13:57:00,
2013-03-09 07:58:00,37.5,36.2,29.90,SE,138,6.0,10.0,95,0.00,,,0.42,18.00,VWS V14.00,2013-03-09 13:58:00,
2013-03-09 07:59:00,37.6,36.3,29.90,SE,144,9.0,11.0,95,0.00,,,0.42,16.00,VWS V14.00,2013-03-09 13:59:00,
2013-03-09 08:00:00,37.6,36.6,29.90,SSE,164,7.0,11.0,96,0.00,,,0.42,16.00,VWS V14.00,2013-03-09 14:00:00,
2013-03-09 08:02:00,37.6,36.3,29.90,SE,142,7.0,11.0,95,0.00,,,0.42,14.00,VWS V14.00,2013-03-09 14:02:00,
2013-03-09 08:03:00,37.6,36.6,29.90,SE,142,8.0,11.0,96,0.00,,,0.42,16.00,VWS V14.00,2013-03-09 14:03:00,
2013-03-09 08:04:00,37.6,36.6,29.90,SSE,161,5.0,11.0,96,0.00,,,0.42,14.00,VWS V14.00,2013-03-09 14:04:00,
2013-03-09 08:05:00,37.6,36.6,29.90,SSE,150,7.0,12.0,96,0.00,,,0.42,16.00,VWS V14.00,2013-03-09 14:05:00,
2013-03-09 08:07:00,37.6,36.6,29.90,SE,130,7.0,12.0,96,0.00,,,0.42,19.00,VWS V14.00,2013-03-09 14:07:00,
2013-03-09 08:08:00,37.6,36.6,29.90,SE,140,10.0,13.0,96,0.00,,,0.42,18.00,VWS V14.00,2013-03-09 14:08:00,
2013-03-09 08:10:00,37.7,36.7,29.90,SE,129,8.0,9.0,96,0.00,,,0.42,18.00,VWS V14.00,2013-03-09 14:10:00,
2013-03-09 08:11:00,37.7,36.7,29.90,SE,138,10.0,11.0,96,0.00,,,0.42,18.00,VWS V14.00,2013-03-09 14:11:00,
2013-03-09 08:12:00,37.7,36.7,29.90,SSE,149,8.0,11.0,96,0.00,,,0.42,19.00,VWS V14.00,2013-03-09 14:12:00,
2013-03-09 08:13:00,37.7,36.7,29.90,SE,131,6.0,11.0,96,0.00,,,0.42,18.00,VWS V14.00,2013-03-09 14:13:00,
2013-03-09 08:15:00,37.7,36.7,29.90,SE,137,9.0,11.0,96,0.00,,,0.42,23.00,VWS V14.00,2013-03-09 14:15:00,
2013-03-09 08:16:00,37.7,36.7,29.90,ESE,121,11.0,11.0,96,0.00,,,0.42,19.00,VWS V14.00,2013-03-09 14:16:00,
2013-03-09 08:18:00,37.7,36.7,29.90,SE,140,8.0,11.0,96,0.00,,,0.42,21.00,VWS V14.00,2013-03-09 14:18:00,
2013-03-09 08:20:00,37.7,36.7,29.90,SSE,159,5.0,8.0,96,0.00,,,0.42,25.00,VWS V14.00,2013-03-09 14:20:00,
2013-03-09 08:21:00,37.7,36.7,29.90,SE,142,8.0,9.0,96,0.00,,,0.42,26.00,VWS V14.00,2013-03-09 14:21:00,
2013-03-09 08:23:00,37.7,36.7,29.90,SSE,148,9.0,12.0,96,0.00,,,0.42,28.00,VWS V14.00,2013-03-09 14:23:00,
2013-03-09 08:25:00,37.7,36.7,29.89,SE,135,12.0,12.0,96,0.00,,,0.42,30.00,VWS V14.00,2013-03-09 14:25:00,
2013-03-09 08:26:00,37.8,36.8,29.89,SE,135,8.0,14.0,96,0.00,,,0.42,32.00,VWS V14.00,2013-03-09 14:26:00,
2013-03-09 08:28:00,37.8,36.8,29.89,SE,131,8.0,14.0,96,0.00,,,0.42,39.00,VWS V14.00,2013-03-09 14:28:00,
2013-03-09 08:30:00,37.8,36.8,29.89,SE,132,8.0,12.0,96,0.00,,,0.42,39.00,VWS V14.00,2013-03-09 14:30:00,
2013-03-09 08:32:00,37.8,36.8,29.89,SE,145,7.0,12.0,96,0.00,,,0.42,39.00,VWS V14.00,2013-03-09 14:32:00,
2013-03-09 08:33:00,37.8,36.8,29.89,SE,145,6.0,14.0,96,0.00,,,0.42,42.00,VWS V14.00,2013-03-09 14:33:00,
2013-03-09 08:34:00,37.8,36.8,29.89,ESE,121,6.0,14.0,96,0.00,,,0.42,33.00,VWS V14.00,2013-03-09 14:34:00,
2013-03-09 08:35:00,37.9,36.9,29.89,SE,139,9.0,12.0,96,0.00,,,0.42,33.00,VWS V14.00,2013-03-09 14:35:00,
2013-03-09 08:37:00,37.8,36.8,29.89,SE,137,9.0,12.0,96,0.00,,,0.42,32.00,VWS V14.00,2013-03-09 14:37:00,
2013-03-09 08:38:00,37.9,36.9,29.89,SE,146,5.0,12.0,96,0.00,,,0.42,32.00,VWS V14.00,2013-03-09 14:38:00,
2013-03-09 08:39:00,37.8,36.8,29.89,SE,136,6.0,6.0,96,0.00,,,0.42,26.00,VWS V14.00,2013-03-09 14:39:00,
2013-03-09 08:40:00,37.8,36.8,29.89,SE,141,6.0,8.0,96,0.00,,,0.42,26.00,VWS V14.00,2013-03-09 14:40:00,
2013-03-09 08:42:00,37.8,36.8,29.89,SE,134,9.0,10.0,96,0.00,,,0.42,26.00,VWS V14.00,2013-03-09 14:42:00,
2013-03-09 08:43:00,37.9,36.9,29.89,SE,143,6.0,10.0,96,0.00,,,0.42,23.00,VWS V14.00,2013-03-09 14:43:00,
2013-03-09 08:44:00,37.9,36.9,29.89,South,170,5.0,6.0,96,0.00,,,0.42,23.00,VWS V14.00,2013-03-09 14:44:00,
2013-03-09 08:45:00,37.8,36.8,29.89,SE,146,4.0,9.0,96,0.00,,,0.42,25.00,VWS V14.00,2013-03-09 14:45:00,
2013-03-09 08:47:00,37.9,36.9,29.89,SSE,161,6.0,9.0,96,0.00,,,0.42,25.00,VWS V14.00,2013-03-09 14:47:00,
2013-03-09 08:48:00,37.8,36.8,29.89,SSE,165,2.0,9.0,96,0.00,,,0.42,19.00,VWS V14.00,2013-03-09 14:48:00,
2013-03-09 08:49:00,37.8,36.8,29.89,SE,141,7.0,7.0,96,0.00,,,0.42,21.00,VWS V14.00,2013-03-09 14:49:00,
2013-03-09 08:50:00,37.8,36.8,29.89,SSE,156,6.0,12.0,96,0.00,,,0.42,28.00,VWS V14.00,2013-03-09 14:50:00,
2013-03-09 08:52:00,37.9,36.9,29.89,SE,136,7.0,12.0,96,0.00,,,0.42,26.00,VWS V14.00,2013-03-09 14:52:00,
2013-03-09 08:53:00,37.9,36.9,29.88,SSE,148,7.0,12.0,96,0.00,,,0.42,32.00,VWS V14.00,2013-03-09 14:53:00,
2013-03-09 08:54:00,37.9,36.9,29.88,SE,137,8.0,8.0,96,0.00,,,0.42,30.00,VWS V14.00,2013-03-09 14:54:00,
2013-03-09 08:55:00,37.9,36.9,29.88,SSE,153,7.0,9.0,96,0.00,,,0.42,25.00,VWS V14.00,2013-03-09 14:55:00,
2013-03-09 08:58:00,37.9,36.9,29.88,SE,134,7.0,9.0,96,0.00,,,0.42,33.00,VWS V14.00,2013-03-09 14:58:00,
2013-03-09 08:59:00,37.9,36.6,29.88,SSE,147,10.0,10.0,95,0.00,,,0.42,30.00,VWS V14.00,2013-03-09 14:59:00,
2013-03-09 09:00:00,37.9,36.9,29.88,SE,139,8.0,10.0,96,0.00,,,0.42,30.00,VWS V14.00,2013-03-09 15:00:00,
2013-03-09 09:03:00,37.9,36.9,29.87,ESE,120,9.0,12.0,96,0.00,,,0.42,42.00,VWS V14.00,2013-03-09 15:03:00,
2013-03-09 09:05:00,37.9,36.9,29.87,ESE,123,11.0,11.0,96,0.00,,,0.42,35.00,VWS V14.00,2013-03-09 15:05:00,
2013-03-09 09:08:00,37.9,36.6,29.87,SSE,154,9.0,11.0,95,0.00,,,0.42,35.00,VWS V14.00,2013-03-09 15:08:00,
2013-03-09 09:09:00,37.9,36.6,29.87,SE,129,9.0,11.0,95,0.00,,,0.42,44.00,VWS V14.00,2013-03-09 15:09:00,
2013-03-09 09:10:00,37.9,36.6,29.86,SE,134,7.0,12.0,95,0.00,,,0.42,56.00,VWS V14.00,2013-03-09 15:10:00,
2013-03-09 09:11:00,37.9,36.6,29.86,SSE,148,7.0,12.0,95,0.00,,,0.42,54.00,VWS V14.00,2013-03-09 15:11:00,
2013-03-09 09:13:00,37.9,36.6,29.86,SSE,163,7.0,12.0,95,0.00,,,0.42,58.00,VWS V14.00,2013-03-09 15:13:00,
2013-03-09 09:14:00,37.9,36.6,29.86,SE,141,6.0,6.0,95,0.00,,,0.42,49.00,VWS V14.00,2013-03-09 15:14:00,
2013-03-09 09:15:00,37.9,36.6,29.86,SSE,164,7.0,9.0,95,0.00,,,0.42,49.00,VWS V14.00,2013-03-09 15:15:00,
2013-03-09 09:16:00,37.9,36.6,29.86,SE,129,8.0,9.0,95,0.00,,,0.42,49.00,VWS V14.00,2013-03-09 15:16:00,
2013-03-09 09:18:00,37.9,36.6,29.85,SSE,148,8.0,11.0,95,0.00,,,0.42,63.00,VWS V14.00,2013-03-09 15:18:00,
2013-03-09 09:19:00,37.9,36.6,29.85,ESE,117,11.0,11.0,95,0.00,,,0.42,79.00,VWS V14.00,2013-03-09 15:19:00,
2013-03-09 09:20:00,37.9,36.6,29.85,ESE,115,11.0,12.0,95,0.00,,,0.42,79.00,VWS V14.00,2013-03-09 15:20:00,
2013-03-09 09:21:00,38.0,37.0,29.85,SSW,207,6.0,11.0,96,0.00,,,0.42,70.00,VWS V14.00,2013-03-09 15:21:00,
2013-03-09 09:24:00,38.0,37.0,29.85,SE,139,6.0,12.0,96,0.00,,,0.42,84.00,VWS V14.00,2013-03-09 15:24:00,
2013-03-09 09:25:00,38.0,37.0,29.85,SE,135,9.0,12.0,96,0.00,,,0.42,83.00,VWS V14.00,2013-03-09 15:25:00,
2013-03-09 09:26:00,38.1,36.8,29.85,SE,132,11.0,14.0,95,0.00,,,0.42,100.00,VWS V14.00,2013-03-09 15:26:00,
2013-03-09 09:29:00,38.1,36.8,29.85,SE,134,11.0,14.0,95,0.00,,,0.42,95.00,VWS V14.00,2013-03-09 15:29:00,
2013-03-09 09:30:00,38.1,36.8,29.85,SE,146,10.0,14.0,95,0.00,,,0.42,95.00,VWS V14.00,2013-03-09 15:30:00,
2013-03-09 09:31:00,38.2,37.2,29.84,SE,128,11.0,11.0,96,0.00,,,0.42,98.00,VWS V14.00,2013-03-09 15:31:00,
2013-03-09 09:32:00,38.2,37.2,29.84,SSE,149,8.0,11.0,96,0.00,,,0.42,98.00,VWS V14.00,2013-03-09 15:32:00,
2013-03-09 09:34:00,38.2,36.9,29.84,SE,131,9.0,12.0,95,0.00,,,0.42,102.00,VWS V14.00,2013-03-09 15:34:00,
2013-03-09 09:35:00,38.2,36.9,29.84,SE,146,11.0,12.0,95,0.00,,,0.42,102.00,VWS V14.00,2013-03-09 15:35:00,
2013-03-09 09:36:00,38.3,37.0,29.84,SSE,166,6.0,11.0,95,0.00,,,0.42,95.00,VWS V14.00,2013-03-09 15:36:00,
2013-03-09 09:37:00,38.3,37.0,29.84,SE,139,5.0,11.0,95,0.00,,,0.42,93.00,VWS V14.00,2013-03-09 15:37:00,
2013-03-09 09:39:00,38.3,37.0,29.84,SE,136,6.0,8.0,95,0.00,,,0.42,84.00,VWS V14.00,2013-03-09 15:39:00,
2013-03-09 09:40:00,38.3,37.0,29.84,SE,142,8.0,11.0,95,0.00,,,0.42,84.00,VWS V14.00,2013-03-09 15:40:00,
2013-03-09 09:41:00,38.3,37.0,29.84,SE,137,6.0,13.0,95,0.00,,,0.42,97.00,VWS V14.00,2013-03-09 15:41:00,
2013-03-09 09:42:00,38.3,37.0,29.84,SE,129,6.0,13.0,95,0.00,,,0.42,98.00,VWS V14.00,2013-03-09 15:42:00,
2013-03-09 09:44:00,38.4,37.1,29.84,SE,141,9.0,9.0,95,0.00,,,0.42,107.00,VWS V14.00,2013-03-09 15:44:00,
2013-03-09 09:45:00,38.4,37.1,29.84,South,188,6.0,13.0,95,0.00,,,0.42,107.00,VWS V14.00,2013-03-09 15:45:00,
2013-03-09 09:46:00,38.4,37.1,29.84,SE,142,10.0,13.0,95,0.00,,,0.42,93.00,VWS V14.00,2013-03-09 15:46:00,
2013-03-09 09:47:00,38.5,37.2,29.84,SE,140,9.0,13.0,95,0.00,,,0.42,83.00,VWS V14.00,2013-03-09 15:47:00,
2013-03-09 09:49:00,38.5,37.2,29.83,SE,142,6.0,11.0,95,0.00,,,0.42,88.00,VWS V14.00,2013-03-09 15:49:00,
2013-03-09 09:50:00,38.5,37.2,29.83,SSE,150,5.0,11.0,95,0.00,,,0.42,93.00,VWS V14.00,2013-03-09 15:50:00,
2013-03-09 09:51:00,38.5,37.2,29.83,SE,128,9.0,12.0,95,0.00,,,0.42,102.00,VWS V14.00,2013-03-09 15:51:00,
2013-03-09 09:52:00,38.5,37.2,29.83,SE,131,11.0,12.0,95,0.00,,,0.42,102.00,VWS V14.00,2013-03-09 15:52:00,
2013-03-09 09:54:00,38.6,37.3,29.83,SE,126,11.0,12.0,95,0.00,,,0.42,77.00,VWS V14.00,2013-03-09 15:54:00,
2013-03-09 09:55:00,38.6,37.3,29.83,SE,141,10.0,12.0,95,0.00,,,0.42,93.00,VWS V14.00,2013-03-09 15:55:00,
2013-03-09 09:57:00,38.6,37.3,29.84,SSE,157,9.0,13.0,95,0.00,,,0.42,88.00,VWS V14.00,2013-03-09 15:57:00,
2013-03-09 09:59:00,38.6,37.3,29.84,SE,137,7.0,7.0,95,0.00,,,0.42,91.00,VWS V14.00,2013-03-09 15:59:00,
2013-03-09 10:00:00,38.6,37.3,29.84,SE,130,12.0,12.0,95,0.00,,,0.42,84.00,VWS V14.00,2013-03-09 16:00:00,
2013-03-09 10:02:00,38.6,37.3,29.84,SE,126,7.0,12.0,95,0.00,,,0.42,88.00,VWS V14.00,2013-03-09 16:02:00,
2013-03-09 10:04:00,38.6,37.3,29.84,SSE,157,7.0,8.0,95,0.00,,,0.42,84.00,VWS V14.00,2013-03-09 16:04:00,
2013-03-09 10:05:00,38.7,37.4,29.84,SE,125,4.0,8.0,95,0.00,,,0.42,79.00,VWS V14.00,2013-03-09 16:05:00,
2013-03-09 10:07:00,38.7,37.4,29.85,SSE,168,8.0,12.0,95,0.00,,,0.42,97.00,VWS V14.00,2013-03-09 16:07:00,
2013-03-09 10:09:00,38.7,37.4,29.84,SE,146,7.0,9.0,95,0.00,,,0.42,97.00,VWS V14.00,2013-03-09 16:09:00,
2013-03-09 10:10:00,38.7,37.4,29.84,SE,143,9.0,9.0,95,0.00,,,0.42,88.00,VWS V14.00,2013-03-09 16:10:00,
2013-03-09 10:12:00,38.7,37.4,29.84,SSE,168,6.0,12.0,95,0.00,,,0.42,109.00,VWS V14.00,2013-03-09 16:12:00,
2013-03-09 10:13:00,38.7,37.4,29.84,SE,146,4.0,12.0,95,0.00,,,0.42,100.00,VWS V14.00,2013-03-09 16:13:00,
2013-03-09 10:15:00,38.7,37.4,29.84,SE,146,9.0,9.0,95,0.00,,,0.42,118.00,VWS V14.00,2013-03-09 16:15:00,
2013-03-09 10:17:00,38.7,37.4,29.84,SSE,149,7.0,10.0,95,0.00,,,0.42,139.00,VWS V14.00,2013-03-09 16:17:00,
2013-03-09 10:18:00,38.7,37.4,29.84,South,182,5.0,10.0,95,0.00,,,0.42,135.00,VWS V14.00,2013-03-09 16:18:00,
2013-03-09 10:20:00,38.8,37.5,29.84,SSE,155,5.0,9.0,95,0.00,,,0.42,130.00,VWS V14.00,2013-03-09 16:20:00,
2013-03-09 10:22:00,38.8,37.2,29.84,South,173,6.0,9.0,94,0.00,,,0.42,111.00,VWS V14.00,2013-03-09 16:22:00,
2013-03-09 10:23:00,38.8,37.2,29.84,SSE,159,4.0,9.0,94,0.00,,,0.42,98.00,VWS V14.00,2013-03-09 16:23:00,
2013-03-09 10:25:00,38.8,37.2,29.84,SSE,158,6.0,8.0,94,0.00,,,0.42,102.00,VWS V14.00,2013-03-09 16:25:00,
2013-03-09 10:27:00,38.8,37.5,29.84,SSE,153,4.0,8.0,95,0.00,,,0.42,88.00,VWS V14.00,2013-03-09 16:27:00,
2013-03-09 10:28:00,38.8,37.2,29.84,SSE,157,6.0,8.0,94,0.00,,,0.42,100.00,VWS V14.00,2013-03-09 16:28:00,
2013-03-09 10:30:00,38.8,37.2,29.84,South,179,6.0,7.0,94,0.00,,,0.42,77.00,VWS V14.00,2013-03-09 16:30:00,
2013-03-09 10:31:00,38.8,37.2,29.84,South,178,5.0,8.0,94,0.00,,,0.42,83.00,VWS V14.00,2013-03-09 16:31:00,
2013-03-09 10:32:00,38.8,37.2,29.84,South,189,2.0,9.0,94,0.00,,,0.42,79.00,VWS V14.00,2013-03-09 16:32:00,
2013-03-09 10:34:00,38.7,37.1,29.84,SSE,166,5.0,9.0,94,0.00,,,0.42,77.00,VWS V14.00,2013-03-09 16:34:00,
2013-03-09 10:35:00,38.7,37.1,29.84,SE,140,5.0,6.0,94,0.00,,,0.42,79.00,VWS V14.00,2013-03-09 16:35:00,
2013-03-09 10:36:00,38.8,37.2,29.84,South,172,5.0,7.0,94,0.00,,,0.42,72.00,VWS V14.00,2013-03-09 16:36:00,
2013-03-09 10:38:00,38.8,37.5,29.85,SSE,163,4.0,7.0,95,0.00,,,0.42,76.00,VWS V14.00,2013-03-09 16:38:00,
2013-03-09 10:39:00,38.7,37.1,29.85,South,173,8.0,8.0,94,0.00,,,0.42,70.00,VWS V14.00,2013-03-09 16:39:00,
2013-03-09 10:40:00,38.8,37.2,29.84,SE,146,1.0,8.0,94,0.00,,RA,0.42,70.00,VWS V14.00,2013-03-09 16:40:00,
2013-03-09 10:42:00,38.7,37.1,29.85,South,176,5.0,8.0,94,0.00,,RA,0.42,62.00,VWS V14.00,2013-03-09 16:42:00,
2013-03-09 10:43:00,38.7,37.1,29.84,SSE,152,4.0,8.0,94,0.00,,RA,0.42,76.00,VWS V14.00,2013-03-09 16:43:00,
2013-03-09 10:44:00,38.7,37.1,29.84,South,179,5.0,5.0,94,0.00,,RA,0.42,76.00,VWS V14.00,2013-03-09 16:44:00,
2013-03-09 10:45:00,38.7,37.1,29.84,South,177,2.0,5.0,94,0.00,,RA,0.42,63.00,VWS V14.00,2013-03-09 16:45:00,
2013-03-09 10:47:00,38.7,37.1,29.84,SSE,159,5.0,7.0,94,0.00,,RA,0.42,58.00,VWS V14.00,2013-03-09 16:47:00,
2013-03-09 10:49:00,38.7,37.4,29.84,SSE,163,5.0,7.0,95,0.00,,RA,0.42,58.00,VWS V14.00,2013-03-09 16:49:00,
2013-03-09 10:50:00,38.7,37.4,29.84,SSE,161,5.0,6.0,95,0.01,,RA,0.43,60.00,VWS V14.00,2013-03-09 16:50:00,
2013-03-09 10:52:00,38.7,37.4,29.84,SSE,165,4.0,7.0,95,0.01,,RA,0.43,53.00,VWS V14.00,2013-03-09 16:52:00,
2013-03-09 10:54:00,38.7,37.4,29.84,SE,144,4.0,7.0,95,0.01,,RA,0.43,46.00,VWS V14.00,2013-03-09 16:54:00,
2013-03-09 10:55:00,38.6,37.3,29.84,SSE,158,7.0,7.0,95,0.01,,RA,0.43,44.00,VWS V14.00,2013-03-09 16:55:00,
2013-03-09 10:57:00,38.6,37.3,29.83,SE,139,4.0,8.0,95,0.02,,RA,0.44,47.00,VWS V14.00,2013-03-09 16:57:00,
2013-03-09 10:59:00,38.6,37.3,29.84,SSE,150,1.0,4.0,95,0.02,,RA,0.44,39.00,VWS V14.00,2013-03-09 16:59:00,
2013-03-09 11:00:00,38.6,37.3,29.83,SSE,161,4.0,8.0,95,0.02,,,0.44,39.00,VWS V14.00,2013-03-09 17:00:00,
2013-03-09 11:01:00,38.6,37.3,29.83,SE,142,2.0,7.0,95,0.02,,-RA,0.44,44.00,VWS V14.00,2013-03-09 17:01:00,
2013-03-09 11:02:00,38.6,37.3,29.83,South,172,4.0,8.0,95,0.02,,-RA,0.44,33.00,VWS V14.00,2013-03-09 17:02:00,
2013-03-09 11:04:00,38.6,37.3,29.83,SSW,195,3.0,5.0,95,0.02,,-RA,0.44,21.00,VWS V14.00,2013-03-09 17:04:00,
2013-03-09 11:05:00,38.6,37.3,29.83,South,173,5.0,8.0,95,0.02,,,0.44,21.00,VWS V14.00,2013-03-09 17:05:00,
2013-03-09 11:06:00,38.6,37.3,29.83,SSE,155,4.0,6.0,95,0.03,,-RA,0.45,18.00,VWS V14.00,2013-03-09 17:06:00,
2013-03-09 11:07:00,38.6,37.3,29.83,SSE,148,5.0,6.0,95,0.04,,-RA,0.46,21.00,VWS V14.00,2013-03-09 17:07:00,
2013-03-09 11:09:00,38.5,37.2,29.83,SE,145,5.0,5.0,95,0.05,,-RA,0.47,21.00,VWS V14.00,2013-03-09 17:09:00,
2013-03-09 11:10:00,38.5,37.2,29.83,SSE,148,5.0,6.0,95,0.05,,-RA,0.47,21.00,VWS V14.00,2013-03-09 17:10:00,
2013-03-09 11:11:00,38.5,37.2,29.83,SE,144,5.0,7.0,95,0.05,,-RA,0.47,21.00,VWS V14.00,2013-03-09 17:11:00,
2013-03-09 11:12:00,38.5,37.2,29.83,SSE,148,6.0,11.0,95,0.06,,-RA,0.48,21.00,VWS V14.00,2013-03-09 17:12:00,
2013-03-09 11:14:00,38.5,37.2,29.83,SSE,150,4.0,7.0,95,0.06,,-RA,0.48,23.00,VWS V14.00,2013-03-09 17:14:00,
2013-03-09 11:15:00,38.5,37.2,29.83,SSE,151,5.0,7.0,95,0.06,,-RA,0.48,23.00,VWS V14.00,2013-03-09 17:15:00,
2013-03-09 11:16:00,38.5,37.2,29.83,South,170,2.0,7.0,95,0.06,,-RA,0.48,30.00,VWS V14.00,2013-03-09 17:16:00,
2013-03-09 11:17:00,38.5,37.2,29.83,SE,136,6.0,9.0,95,0.06,,-RA,0.48,35.00,VWS V14.00,2013-03-09 17:17:00,
2013-03-09 11:19:00,38.5,37.2,29.82,SE,139,6.0,7.0,95,0.07,,-RA,0.49,40.00,VWS V14.00,2013-03-09 17:19:00,
2013-03-09 11:20:00,38.5,37.2,29.82,SE,133,9.0,9.0,95,0.07,,-RA,0.49,40.00,VWS V14.00,2013-03-09 17:20:00,
2013-03-09 11:21:00,38.5,37.2,29.82,SSE,148,4.0,9.0,95,0.07,,-RA,0.49,39.00,VWS V14.00,2013-03-09 17:21:00,
2013-03-09 11:22:00,38.5,37.5,29.82,SE,144,6.0,9.0,96,0.07,,-RA,0.49,40.00,VWS V14.00,2013-03-09 17:22:00,
2013-03-09 11:25:00,38.5,37.5,29.82,SE,145,4.0,6.0,96,0.08,,-RA,0.50,51.00,VWS V14.00,2013-03-09 17:25:00,
2013-03-09 11:26:00,38.5,37.5,29.82,SSE,149,6.0,7.0,96,0.08,,-RA,0.50,40.00,VWS V14.00,2013-03-09 17:26:00,
2013-03-09 11:28:00,38.6,37.6,29.82,SE,144,8.0,8.0,96,0.08,,-RA,0.50,47.00,VWS V14.00,2013-03-09 17:28:00,
2013-03-09 11:30:00,38.6,37.6,29.82,SSE,157,5.0,7.0,96,0.09,,-RA,0.51,30.00,VWS V14.00,2013-03-09 17:30:00,
2013-03-09 11:31:00,38.6,37.6,29.82,SSE,159,5.0,7.0,96,0.09,,-RA,0.51,30.00,VWS V14.00,2013-03-09 17:31:00,
2013-03-09 11:33:00,38.6,37.6,29.82,SE,136,6.0,8.0,96,0.09,,-RA,0.51,44.00,VWS V14.00,2013-03-09 17:33:00,
2013-03-09 11:35:00,38.6,37.6,29.82,SE,136,6.0,7.0,96,0.09,,-RA,0.51,33.00,VWS V14.00,2013-03-09 17:35:00,
2013-03-09 11:36:00,38.6,37.6,29.82,SSE,162,6.0,7.0,96,0.09,,-RA,0.51,33.00,VWS V14.00,2013-03-09 17:36:00,
2013-03-09 11:38:00,38.6,37.6,29.82,SE,142,8.0,9.0,96,0.10,,-RA,0.52,30.00,VWS V14.00,2013-03-09 17:38:00,
2013-03-09 11:40:00,38.6,37.6,29.82,SSE,149,7.0,8.0,96,0.10,,-RA,0.52,33.00,VWS V14.00,2013-03-09 17:40:00,
2013-03-09 11:41:00,38.6,37.6,29.82,SSE,152,5.0,10.0,96,0.11,,RA,0.53,30.00,VWS V14.00,2013-03-09 17:41:00,
2013-03-09 11:44:00,38.6,37.6,29.82,SE,140,8.0,10.0,96,0.11,,RA,0.53,37.00,VWS V14.00,2013-03-09 17:44:00,
2013-03-09 11:45:00,38.6,37.6,29.81,SE,125,7.0,8.0,96,0.11,,RA,0.53,37.00,VWS V14.00,2013-03-09 17:45:00,
2013-03-09 11:46:00,38.6,37.6,29.81,SE,146,6.0,9.0,96,0.12,,RA,0.54,32.00,VWS V14.00,2013-03-09 17:46:00,
2013-03-09 11:49:00,38.5,37.5,29.81,SE,146,4.0,9.0,96,0.12,,RA,0.54,33.00,VWS V14.00,2013-03-09 17:49:00,
2013-03-09 11:50:00,38.5,37.5,29.81,SE,135,6.0,7.0,96,0.13,,RA,0.55,35.00,VWS V14.00,2013-03-09 17:50:00,
2013-03-09 11:52:00,38.5,37.5,29.81,SE,129,6.0,9.0,96,0.13,,RA,0.55,33.00,VWS V14.00,2013-03-09 17:52:00,
2013-03-09 11:54:00,38.5,37.5,29.81,SE,144,6.0,9.0,96,0.13,,RA,0.55,28.00,VWS V14.00,2013-03-09 17:54:00,
2013-03-09 11:55:00,38.5,37.5,29.81,SSE,153,4.0,6.0,96,0.12,,RA,0.55,28.00,VWS V14.00,2013-03-09 17:55:00,
2013-03-09 11:57:00,38.4,37.4,29.81,SSE,150,5.0,6.0,96,0.13,,RA,0.56,23.00,VWS V14.00,2013-03-09 17:57:00,
2013-03-09 11:59:00,38.4,37.4,29.81,SE,140,7.0,7.0,96,0.13,,RA,0.56,23.00,VWS V14.00,2013-03-09 17:59:00,
2013-03-09 12:00:00,38.4,37.4,29.81,SE,139,4.0,7.0,96,0.13,,RA,0.57,28.00,VWS V14.00,2013-03-09 18:00:00,
2013-03-09 12:02:00,38.4,37.4,29.80,SSE,157,5.0,9.0,96,0.13,,-RA,0.57,25.00,VWS V14.00,2013-03-09 18:02:00,
2013-03-09 12:04:00,38.4,37.4,29.80,SE,146,6.0,9.0,96,0.13,,-RA,0.57,26.00,VWS V14.00,2013-03-09 18:04:00,
2013-03-09 12:05:00,38.5,37.5,29.80,SE,141,6.0,8.0,96,0.14,,-RA,0.58,26.00,VWS V14.00,2013-03-09 18:05:00,
2013-03-09 12:07:00,38.5,37.5,29.80,SE,126,7.0,10.0,96,0.14,,-RA,0.58,30.00,VWS V14.00,2013-03-09 18:07:00,
2013-03-09 12:09:00,38.6,37.6,29.80,SSE,151,6.0,10.0,96,0.15,,-RA,0.59,30.00,VWS V14.00,2013-03-09 18:09:00,
2013-03-09 12:10:00,38.6,37.6,29.79,SE,145,5.0,7.0,96,0.12,,-RA,0.59,32.00,VWS V14.00,2013-03-09 18:10:00,
2013-03-09 12:11:00,38.6,37.6,29.79,SE,129,8.0,8.0,96,0.12,,-RA,0.59,33.00,VWS V14.00,2013-03-09 18:11:00,
2013-03-09 12:12:00,38.6,37.6,29.79,SE,146,6.0,11.0,96,0.13,,-RA,0.60,32.00,VWS V14.00,2013-03-09 18:12:00,
2013-03-09 12:14:00,38.6,37.6,29.79,SE,140,7.0,11.0,96,0.13,,-RA,0.60,35.00,VWS V14.00,2013-03-09 18:14:00,
2013-03-09 12:15:00,38.7,37.7,29.78,SE,138,7.0,12.0,96,0.12,,-RA,0.60,35.00,VWS V14.00,2013-03-09 18:15:00,
2013-03-09 12:16:00,38.7,37.7,29.78,SE,136,6.0,12.0,96,0.13,,-RA,0.61,35.00,VWS V14.00,2013-03-09 18:16:00,
2013-03-09 12:17:00,38.7,37.7,29.78,SE,146,6.0,12.0,96,0.13,,-RA,0.61,46.00,VWS V14.00,2013-03-09 18:17:00,
2013-03-09 12:19:00,38.7,37.7,29.78,SE,140,7.0,8.0,96,0.12,,-RA,0.61,42.00,VWS V14.00,2013-03-09 18:19:00,
2013-03-09 12:20:00,38.7,37.7,29.78,SE,138,6.0,8.0,96,0.12,,-RA,0.61,49.00,VWS V14.00,2013-03-09 18:20:00,
2013-03-09 12:21:00,38.7,37.7,29.78,SSE,160,5.0,8.0,96,0.13,,-RA,0.62,54.00,VWS V14.00,2013-03-09 18:21:00,
2013-03-09 12:23:00,38.7,37.7,29.78,SSE,153,4.0,9.0,96,0.13,,-RA,0.62,49.00,VWS V14.00,2013-03-09 18:23:00,
2013-03-09 12:24:00,38.7,37.7,29.78,SE,140,6.0,6.0,96,0.12,,-RA,0.62,51.00,VWS V14.00,2013-03-09 18:24:00,
2013-03-09 12:25:00,38.7,37.7,29.78,SSE,150,6.0,8.0,96,0.13,,-RA,0.63,53.00,VWS V14.00,2013-03-09 18:25:00,
2013-03-09 12:26:00,38.7,37.7,29.78,SSE,150,4.0,8.0,96,0.13,,-RA,0.63,54.00,VWS V14.00,2013-03-09 18:26:00,
2013-03-09 12:28:00,38.7,37.7,29.78,SE,125,7.0,11.0,96,0.13,,-RA,0.63,67.00,VWS V14.00,2013-03-09 18:28:00,
2013-03-09 12:29:00,38.7,37.7,29.77,SSE,148,5.0,6.0,96,0.13,,-RA,0.63,67.00,VWS V14.00,2013-03-09 18:29:00,
2013-03-09 12:30:00,38.7,37.7,29.78,SSE,153,4.0,8.0,96,0.13,,-RA,0.63,65.00,VWS V14.00,2013-03-09 18:30:00,
2013-03-09 12:31:00,38.7,37.7,29.78,SSE,153,7.0,11.0,96,0.13,,-RA,0.63,54.00,VWS V14.00,2013-03-09 18:31:00,
2013-03-09 12:34:00,38.8,37.8,29.77,SSE,162,7.0,8.0,96,0.13,,-RA,0.64,70.00,VWS V14.00,2013-03-09 18:34:00,
2013-03-09 12:35:00,38.8,37.8,29.77,SSE,150,5.0,8.0,96,0.13,,-RA,0.64,84.00,VWS V14.00,2013-03-09 18:35:00,
2013-03-09 12:36:00,38.8,37.8,29.77,SSE,153,6.0,8.0,96,0.13,,-RA,0.64,77.00,VWS V14.00,2013-03-09 18:36:00,
2013-03-09 12:39:00,38.8,37.8,29.77,SSE,150,6.0,9.0,96,0.13,,-RA,0.65,83.00,VWS V14.00,2013-03-09 18:39:00,
2013-03-09 12:40:00,38.8,37.8,29.77,SE,132,6.0,8.0,96,0.14,,,0.65,83.00,VWS V14.00,2013-03-09 18:40:00,
2013-03-09 12:41:00,38.8,37.8,29.77,SSE,148,6.0,11.0,96,0.13,,RA,0.65,93.00,VWS V14.00,2013-03-09 18:41:00,
2013-03-09 12:44:00,38.9,37.9,29.77,SSE,163,5.0,5.0,96,0.12,,RA,0.65,118.00,VWS V14.00,2013-03-09 18:44:00,
2013-03-09 12:45:00,38.9,37.9,29.77,SSE,167,4.0,11.0,96,0.13,,,0.65,118.00,VWS V14.00,2013-03-09 18:45:00,
2013-03-09 12:46:00,38.9,37.9,29.77,SSE,163,7.0,8.0,96,0.12,,RA,0.65,146.00,VWS V14.00,2013-03-09 18:46:00,
2013-03-09 12:47:00,38.9,37.9,29.77,SSE,157,7.0,8.0,96,0.13,,RA,0.66,123.00,VWS V14.00,2013-03-09 18:47:00,
2013-03-09 12:49:00,39.0,38.0,29.76,SE,134,7.0,7.0,96,0.12,,RA,0.66,130.00,VWS V14.00,2013-03-09 18:49:00,
2013-03-09 12:50:00,39.0,38.0,29.76,SSE,149,6.0,7.0,96,0.12,,RA,0.66,123.00,VWS V14.00,2013-03-09 18:50:00,
2013-03-09 12:51:00,39.0,38.0,29.76,SE,143,7.0,7.0,96,0.12,,RA,0.66,114.00,VWS V14.00,2013-03-09 18:51:00,
2013-03-09 12:52:00,39.1,38.1,29.76,SE,143,6.0,7.0,96,0.12,,RA,0.66,116.00,VWS V14.00,2013-03-09 18:52:00,
2013-03-09 12:54:00,39.1,38.1,29.76,SSE,168,5.0,7.0,96,0.11,,RA,0.66,120.00,VWS V14.00,2013-03-09 18:54:00,
2013-03-09 12:55:00,39.1,38.1,29.76,SE,132,7.0,10.0,96,0.12,,RA,0.67,116.00,VWS V14.00,2013-03-09 18:55:00,
2013-03-09 12:56:00,39.1,38.1,29.76,SE,135,9.0,11.0,96,0.12,,RA,0.67,104.00,VWS V14.00,2013-03-09 18:56:00,
2013-03-09 12:57:00,39.2,38.2,29.76,SSE,148,8.0,11.0,96,0.12,,RA,0.67,100.00,VWS V14.00,2013-03-09 18:57:00,
2013-03-09 13:00:00,39.2,38.2,29.75,SSE,148,6.0,10.0,96,0.11,,RA,0.67,132.00,VWS V14.00,2013-03-09 19:00:00,
2013-03-09 13:01:00,39.2,38.2,29.75,SE,139,7.0,11.0,96,0.11,,-RA,0.67,100.00,VWS V14.00,2013-03-09 19:01:00,
2013-03-09 13:02:00,39.2,38.2,29.75,SE,136,8.0,11.0,96,0.11,,-RA,0.67,111.00,VWS V14.00,2013-03-09 19:02:00,
2013-03-09 13:05:00,39.2,38.2,29.74,SE,134,6.0,8.0,96,0.10,,-RA,0.67,98.00,VWS V14.00,2013-03-09 19:05:00,
2013-03-09 13:06:00,39.2,38.2,29.74,SSE,148,7.0,11.0,96,0.10,,-RA,0.67,114.00,VWS V14.00,2013-03-09 19:06:00,
2013-03-09 13:07:00,39.2,38.2,29.74,SE,140,8.0,11.0,96,0.10,,-RA,0.67,120.00,VWS V14.00,2013-03-09 19:07:00,
2013-03-09 13:10:00,39.2,38.2,29.73,SE,138,7.0,11.0,96,0.08,,-RA,0.67,91.00,VWS V14.00,2013-03-09 19:10:00,
2013-03-09 13:11:00,39.3,38.3,29.73,SE,146,8.0,12.0,96,0.08,,-RA,0.67,120.00,VWS V14.00,2013-03-09 19:11:00,
2013-03-09 13:12:00,39.3,38.3,29.73,SE,131,7.0,12.0,96,0.08,,-RA,0.67,114.00,VWS V14.00,2013-03-09 19:12:00,
2013-03-09 13:15:00,39.3,38.3,29.73,SE,134,7.0,11.0,96,0.07,,-RA,0.67,111.00,VWS V14.00,2013-03-09 19:15:00,
2013-03-09 13:17:00,39.3,38.3,29.72,SE,144,5.0,11.0,96,0.07,,-RA,0.67,105.00,VWS V14.00,2013-03-09 19:17:00,
2013-03-09 13:20:00,39.2,38.2,29.73,SE,139,6.0,11.0,96,0.06,,RA,0.67,102.00,VWS V14.00,2013-03-09 19:20:00,
2013-03-09 13:22:00,39.2,38.2,29.73,SE,145,6.0,11.0,96,0.06,,RA,0.67,69.00,VWS V14.00,2013-03-09 19:22:00,
2013-03-09 13:25:00,39.2,38.2,29.74,SE,140,6.0,8.0,96,0.05,,RA,0.67,72.00,VWS V14.00,2013-03-09 19:25:00,
2013-03-09 13:27:00,39.2,38.2,29.73,SE,142,8.0,12.0,96,0.05,,RA,0.67,83.00,VWS V14.00,2013-03-09 19:27:00,
2013-03-09 13:28:00,39.2,38.2,29.73,SSE,158,9.0,12.0,96,0.05,,RA,0.67,79.00,VWS V14.00,2013-03-09 19:28:00,
2013-03-09 13:30:00,39.3,38.3,29.73,SSE,165,2.0,10.0,96,0.04,,RA,0.67,72.00,VWS V14.00,2013-03-09 19:30:00,
2013-03-09 13:31:00,39.2,38.2,29.73,SE,144,5.0,10.0,96,0.04,,RA,0.67,63.00,VWS V14.00,2013-03-09 19:31:00,
2013-03-09 13:32:00,39.2,38.2,29.73,South,181,5.0,13.0,96,0.04,,RA,0.67,62.00,VWS V14.00,2013-03-09 19:32:00,
2013-03-09 13:33:00,39.3,38.3,29.73,SSE,155,4.0,13.0,96,0.04,,RA,0.67,65.00,VWS V14.00,2013-03-09 19:33:00,
2013-03-09 13:35:00,39.2,38.2,29.73,SSE,159,5.0,9.0,96,0.03,,RA,0.67,54.00,VWS V14.00,2013-03-09 19:35:00,
2013-03-09 13:37:00,39.2,38.2,29.73,South,169,4.0,9.0,96,0.03,,RA,0.67,53.00,VWS V14.00,2013-03-09 19:37:00,
2013-03-09 13:38:00,39.2,38.2,29.73,SE,142,5.0,9.0,96,0.03,,RA,0.67,47.00,VWS V14.00,2013-03-09 19:38:00,
2013-03-09 13:40:00,39.2,38.2,29.74,SSE,167,6.0,7.0,96,0.02,,OVC006,0.67,39.00,VWS V14.00,2013-03-09 19:40:00,
2013-03-09 13:42:00,39.2,38.2,29.74,SSE,155,6.0,9.0,96,0.02,,OVC006,0.67,39.00,VWS V14.00,2013-03-09 19:42:00,
2013-03-09 13:43:00,39.2,38.2,29.74,SE,145,7.0,9.0,96,0.02,,OVC006,0.67,39.00,VWS V14.00,2013-03-09 19:43:00,
2013-03-09 13:44:00,39.2,38.2,29.74,SE,142,7.0,9.0,96,0.02,,OVC006,0.67,39.00,VWS V14.00,2013-03-09 19:44:00,
2013-03-09 13:45:00,39.2,38.2,29.74,SE,140,4.0,7.0,96,0.02,,OVC006,0.67,35.00,VWS V14.00,2013-03-09 19:45:00,
2013-03-09 13:47:00,39.2,38.2,29.74,SSE,150,6.0,7.0,96,0.02,,OVC006,0.67,35.00,VWS V14.00,2013-03-09 19:47:00,
2013-03-09 13:48:00,39.2,38.2,29.74,SSE,155,5.0,7.0,96,0.02,,OVC006,0.67,37.00,VWS V14.00,2013-03-09 19:48:00,
2013-03-09 13:49:00,39.2,38.2,29.74,South,171,4.0,7.0,96,0.02,,OVC006,0.67,37.00,VWS V14.00,2013-03-09 19:49:00,
2013-03-09 13:50:00,39.1,38.1,29.74,SE,139,1.0,5.0,96,0.01,,OVC006,0.67,35.00,VWS V14.00,2013-03-09 19:50:00,
2013-03-09 13:52:00,39.1,38.1,29.74,SE,142,5.0,6.0,96,0.01,,OVC006,0.67,35.00,VWS V14.00,2013-03-09 19:52:00,
2013-03-09 13:53:00,39.1,38.1,29.74,SSE,153,2.0,6.0,96,0.01,,OVC006,0.67,33.00,VWS V14.00,2013-03-09 19:53:00,
2013-03-09 13:54:00,39.0,38.0,29.74,SSE,153,5.0,5.0,96,0.01,,OVC006,0.67,32.00,VWS V14.00,2013-03-09 19:54:00,
2013-03-09 13:55:00,39.0,38.0,29.73,South,175,2.0,6.0,96,0.01,,OVC006,0.67,33.00,VWS V14.00,2013-03-09 19:55:00,
2013-03-09 13:57:00,39.0,38.0,29.73,SSE,154,5.0,6.0,96,0.01,,OVC006,0.67,32.00,VWS V14.00,2013-03-09 19:57:00,
2013-03-09 13:58:00,39.0,38.0,29.73,SE,146,5.0,6.0,96,0.01,,OVC006,0.67,33.00,VWS V14.00,2013-03-09 19:58:00,
2013-03-09 13:59:00,39.0,38.0,29.73,SSE,155,2.0,5.0,96,0.00,,OVC006,0.67,37.00,VWS V14.00,2013-03-09 19:59:00,
2013-03-09 14:00:00,39.0,38.0,29.73,SSE,155,5.0,6.0,96,0.00,,OVC008,0.67,39.00,VWS V14.00,2013-03-09 20:00:00,
2013-03-09 14:02:00,38.9,37.9,29.73,SE,138,5.0,6.0,96,0.00,,OVC008,0.67,47.00,VWS V14.00,2013-03-09 20:02:00,
2013-03-09 14:04:00,38.9,37.9,29.73,SSE,162,4.0,6.0,96,0.00,,OVC008,0.67,47.00,VWS V14.00,2013-03-09 20:04:00,
2013-03-09 14:05:00,39.0,38.0,29.73,SSE,149,4.0,5.0,96,0.00,,OVC008,0.67,60.00,VWS V14.00,2013-03-09 20:05:00,
2013-03-09 14:08:00,39.0,38.0,29.72,SE,141,5.0,5.0,96,0.00,,OVC008,0.67,74.00,VWS V14.00,2013-03-09 20:08:00,
2013-03-09 14:09:00,39.0,38.0,29.72,SE,143,4.0,6.0,96,0.00,,OVC008,0.67,83.00,VWS V14.00,2013-03-09 20:09:00,
2013-03-09 14:10:00,39.1,38.1,29.72,SE,137,5.0,5.0,96,0.00,,OVC008,0.67,86.00,VWS V14.00,2013-03-09 20:10:00,
2013-03-09 14:13:00,39.2,38.2,29.72,SSE,153,6.0,6.0,96,0.00,,OVC008,0.67,88.00,VWS V14.00,2013-03-09 20:13:00,
2013-03-09 14:14:00,39.2,38.2,29.73,SSE,153,2.0,2.0,96,0.00,,OVC008,0.67,77.00,VWS V14.00,2013-03-09 20:14:00,
2013-03-09 14:15:00,39.3,38.3,29.73,South,176,4.0,6.0,96,0.00,,OVC008,0.67,76.00,VWS V14.00,2013-03-09 20:15:00,
2013-03-09 14:16:00,39.3,38.5,29.73,SSE,156,4.0,6.0,97,0.00,,OVC008,0.67,76.00,VWS V14.00,2013-03-09 20:16:00,
2013-03-09 14:18:00,39.3,38.5,29.73,SSE,147,5.0,6.0,97,0.00,,OVC008,0.67,67.00,VWS V14.00,2013-03-09 20:18:00,
2013-03-09 14:19:00,39.4,38.6,29.73,SSE,161,4.0,4.0,97,0.00,,OVC008,0.67,56.00,VWS V14.00,2013-03-09 20:19:00,
2013-03-09 14:20:00,39.4,38.4,29.73,SSE,162,4.0,4.0,96,0.00,,OVC008,0.67,56.00,VWS V14.00,2013-03-09 20:20:00,
2013-03-09 14:21:00,39.4,38.4,29.72,SE,140,6.0,7.0,96,0.00,,OVC008,0.67,62.00,VWS V14.00,2013-03-09 20:21:00,
2013-03-09 14:23:00,39.4,38.4,29.72,SE,140,4.0,7.0,96,0.00,,OVC008,0.67,65.00,VWS V14.00,2013-03-09 20:23:00,
2013-03-09 14:25:00,39.5,38.5,29.72,SE,131,6.0,6.0,96,0.00,,OVC008,0.67,76.00,VWS V14.00,2013-03-09 20:25:00,
2013-03-09 14:26:00,39.5,38.5,29.71,SSE,150,6.0,8.0,96,0.00,,OVC008,0.67,76.00,VWS V14.00,2013-03-09 20:26:00,
2013-03-09 14:28:00,39.6,38.8,29.71,SE,145,5.0,8.0,97,0.00,,OVC008,0.67,102.00,VWS V14.00,2013-03-09 20:28:00,
2013-03-09 14:30:00,39.6,38.6,29.72,SSE,167,4.0,5.0,96,0.00,,OVC008,0.67,100.00,VWS V14.00,2013-03-09 20:30:00,
2013-03-09 14:31:00,39.7,38.7,29.72,SSE,166,1.0,5.0,96,0.00,,OVC008,0.67,93.00,VWS V14.00,2013-03-09 20:31:00,
2013-03-09 14:33:00,39.7,38.7,29.72,SSE,165,2.0,5.0,96,0.00,,OVC008,0.67,84.00,VWS V14.00,2013-03-09 20:33:00,
2013-03-09 14:35:00,39.8,38.8,29.72,SSE,155,6.0,6.0,96,0.00,,OVC008,0.67,83.00,VWS V14.00,2013-03-09 20:35:00,
2013-03-09 14:36:00,39.8,38.8,29.72,SSE,159,4.0,6.0,96,0.00,,OVC008,0.67,86.00,VWS V14.00,2013-03-09 20:36:00,
2013-03-09 14:37:00,39.8,38.8,29.72,SSE,166,5.0,6.0,96,0.00,,OVC008,0.67,77.00,VWS V14.00,2013-03-09 20:37:00,
2013-03-09 14:38:00,39.9,38.8,29.72,SSE,161,5.0,6.0,96,0.00,,OVC008,0.67,63.00,VWS V14.00,2013-03-09 20:38:00,
2013-03-09 14:40:00,39.8,38.8,29.72,SSE,150,5.0,6.0,96,0.00,,,0.67,63.00,VWS V14.00,2013-03-09 20:40:00,
2013-03-09 14:41:00,39.9,39.1,29.72,SSE,157,2.0,6.0,97,0.00,,OVC008,0.67,70.00,VWS V14.00,2013-03-09 20:41:00,
2013-03-09 14:42:00,39.9,39.1,29.72,SSE,163,5.0,6.0,97,0.00,,OVC008,0.67,65.00,VWS V14.00,2013-03-09 20:42:00,
2013-03-09 14:44:00,39.9,38.8,29.73,South,171,1.0,6.0,96,0.00,,OVC008,0.67,54.00,VWS V14.00,2013-03-09 20:44:00,
2013-03-09 14:45:00,39.9,38.8,29.73,South,171,1.0,6.0,96,0.00,,,0.67,54.00,VWS V14.00,2013-03-09 20:45:00,
2013-03-09 14:46:00,40.0,39.0,29.73,South,174,1.0,5.0,96,0.00,,OVC008,0.67,46.00,VWS V14.00,2013-03-09 20:46:00,
2013-03-09 14:47:00,40.0,39.0,29.73,South,171,2.0,5.0,96,0.00,,OVC008,0.67,40.00,VWS V14.00,2013-03-09 20:47:00,
2013-03-09 14:49:00,40.0,39.0,29.73,South,173,2.0,5.0,96,0.00,,OVC008,0.67,42.00,VWS V14.00,2013-03-09 20:49:00,
2013-03-09 14:50:00,40.0,39.0,29.73,South,173,2.0,5.0,96,0.00,,,0.67,42.00,VWS V14.00,2013-03-09 20:50:00,
2013-03-09 14:51:00,40.0,39.0,29.73,South,172,0.0,6.0,96,0.00,,OVC008,0.67,33.00,VWS V14.00,2013-03-09 20:51:00,
2013-03-09 14:53:00,40.0,39.0,29.74,South,171,4.0,6.0,96,0.00,,OVC008,0.67,32.00,VWS V14.00,2013-03-09 20:53:00,
2013-03-09 14:54:00,40.0,39.0,29.73,South,180,2.0,2.0,96,0.00,,OVC008,0.67,33.00,VWS V14.00,2013-03-09 20:54:00,
2013-03-09 14:55:00,40.0,39.0,29.74,South,180,0.0,6.0,96,0.00,,,0.67,33.00,VWS V14.00,2013-03-09 20:55:00,
2013-03-09 14:56:00,40.0,39.0,29.74,SSE,168,1.0,5.0,96,0.00,,OVC008,0.67,33.00,VWS V14.00,2013-03-09 20:56:00,
2013-03-09 14:57:00,40.0,39.0,29.74,SSE,168,2.0,5.0,96,0.00,,OVC008,0.67,33.00,VWS V14.00,2013-03-09 20:57:00,
2013-03-09 14:58:00,40.0,39.0,29.74,SSE,168,1.0,5.0,96,0.00,,OVC008,0.67,30.00,VWS V14.00,2013-03-09 20:58:00,
2013-03-09 15:00:00,40.0,39.0,29.74,South,169,2.0,2.0,96,0.00,,OVC008,0.67,28.00,VWS V14.00,2013-03-09 21:00:00,
2013-03-09 15:01:00,39.9,38.8,29.74,SSE,168,2.0,2.0,96,0.00,,OVC008,0.67,28.00,VWS V14.00,2013-03-09 21:01:00,
2013-03-09 15:02:00,40.0,39.0,29.73,SSE,168,0.0,2.0,96,0.00,,OVC008,0.67,28.00,VWS V14.00,2013-03-09 21:02:00,
2013-03-09 15:03:00,39.9,38.8,29.73,SSE,168,0.0,2.0,96,0.00,,OVC008,0.67,26.00,VWS V14.00,2013-03-09 21:03:00,
2013-03-09 15:05:00,39.9,38.8,29.73,SSE,168,2.0,2.0,96,0.00,,OVC008,0.67,33.00,VWS V14.00,2013-03-09 21:05:00,
2013-03-09 15:07:00,39.9,38.8,29.73,SE,138,4.0,4.0,96,0.00,,OVC008,0.67,35.00,VWS V14.00,2013-03-09 21:07:00,
2013-03-09 15:08:00,39.9,38.8,29.72,SE,137,2.0,4.0,96,0.00,,OVC008,0.67,33.00,VWS V14.00,2013-03-09 21:08:00,
2013-03-09 15:10:00,39.9,38.8,29.73,SE,138,0.0,4.0,96,0.00,,OVC008,0.67,21.00,VWS V14.00,2013-03-09 21:10:00,
2013-03-09 15:12:00,39.8,38.8,29.73,SE,138,4.0,5.0,96,0.00,,OVC008,0.67,26.00,VWS V14.00,2013-03-09 21:12:00,
2013-03-09 15:13:00,39.8,38.8,29.73,SE,137,4.0,5.0,96,0.00,,OVC008,0.67,26.00,VWS V14.00,2013-03-09 21:13:00,
2013-03-09 15:15:00,39.9,38.8,29.72,SE,138,2.0,4.0,96,0.00,,OVC008,0.67,28.00,VWS V14.00,2013-03-09 21:15:00,
2013-03-09 15:17:00,39.9,38.8,29.73,ESE,121,5.0,5.0,96,0.00,,OVC008,0.67,25.00,VWS V14.00,2013-03-09 21:17:00,
2013-03-09 15:18:00,39.9,38.8,29.72,SE,130,5.0,6.0,96,0.00,,OVC008,0.67,30.00,VWS V14.00,2013-03-09 21:18:00,
2013-03-09 15:20:00,40.0,39.0,29.72,ESE,105,5.0,7.0,96,0.00,,,0.67,35.00,VWS V14.00,2013-03-09 21:20:00,
2013-03-09 15:22:00,40.0,39.0,29.72,SE,146,4.0,7.0,96,0.00,,,0.67,33.00,VWS V14.00,2013-03-09 21:22:00,
2013-03-09 15:23:00,40.0,39.0,29.72,ESE,120,5.0,7.0,96,0.00,,,0.67,33.00,VWS V14.00,2013-03-09 21:23:00,
2013-03-09 15:25:00,39.9,38.8,29.71,ESE,115,2.0,4.0,96,0.00,,,0.67,39.00,VWS V14.00,2013-03-09 21:25:00,
2013-03-09 15:28:00,40.0,39.0,29.71,SE,134,5.0,7.0,96,0.00,,,0.67,42.00,VWS V14.00,2013-03-09 21:28:00,
2013-03-09 15:30:00,40.0,39.0,29.72,ESE,113,4.0,5.0,96,0.00,,,0.67,47.00,VWS V14.00,2013-03-09 21:30:00,
2013-03-09 15:33:00,39.9,38.8,29.72,East,96,0.0,5.0,96,0.00,,,0.67,33.00,VWS V14.00,2013-03-09 21:33:00,
2013-03-09 15:35:00,39.9,38.8,29.73,East,96,1.0,1.0,96,0.00,,,0.67,21.00,VWS V14.00,2013-03-09 21:35:00,
2013-03-09 15:38:00,39.9,38.8,29.74,South,188,2.0,3.0,96,0.00,,,0.67,16.00,VWS V14.00,2013-03-09 21:38:00,
2013-03-09 15:39:00,39.9,38.8,29.74,South,188,2.0,3.0,96,0.00,,,0.67,16.00,VWS V14.00,2013-03-09 21:39:00,
2013-03-09 15:40:00,39.9,38.8,29.73,South,188,0.0,3.0,96,0.00,,,0.67,25.00,VWS V14.00,2013-03-09 21:40:00,
2013-03-09 15:43:00,39.9,38.8,29.73,South,187,0.0,3.0,96,0.00,,,0.67,25.00,VWS V14.00,2013-03-09 21:43:00,
2013-03-09 15:44:00,39.9,38.8,29.73,South,188,0.0,3.0,96,0.00,,,0.67,25.00,VWS V14.00,2013-03-09 21:44:00,
2013-03-09 15:45:00,39.9,38.8,29.73,South,188,0.0,3.0,96,0.00,,,0.67,25.00,VWS V14.00,2013-03-09 21:45:00,
2013-03-09 15:46:00,39.9,38.8,29.74,South,188,1.0,1.0,96,0.00,,,0.67,32.00,VWS V14.00,2013-03-09 21:46:00,
2013-03-09 15:48:00,39.9,38.8,29.74,South,188,2.0,3.0,96,0.00,,,0.67,40.00,VWS V14.00,2013-03-09 21:48:00,
2013-03-09 15:49:00,39.9,38.8,29.74,South,188,3.0,3.0,96,0.00,,,0.67,40.00,VWS V14.00,2013-03-09 21:49:00,
2013-03-09 15:50:00,39.9,38.8,29.74,South,188,2.0,3.0,96,0.00,,,0.67,40.00,VWS V14.00,2013-03-09 21:50:00,
2013-03-09 15:51:00,39.8,38.8,29.73,SE,137,6.0,6.0,96,0.00,,,0.67,33.00,VWS V14.00,2013-03-09 21:51:00,
2013-03-09 15:53:00,39.8,38.8,29.73,SE,136,7.0,7.0,96,0.00,,,0.67,33.00,VWS V14.00,2013-03-09 21:53:00,
2013-03-09 15:54:00,39.8,38.8,29.73,SE,136,7.0,7.0,96,0.00,,,0.67,33.00,VWS V14.00,2013-03-09 21:54:00,
2013-03-09 15:55:00,39.8,38.8,29.73,SE,136,6.0,7.0,96,0.00,,,0.67,33.00,VWS V14.00,2013-03-09 21:55:00,
2013-03-09 15:57:00,39.7,38.7,29.73,SE,145,1.0,7.0,96,0.00,,,0.67,33.00,VWS V14.00,2013-03-09 21:57:00,
2013-03-09 15:59:00,39.7,38.7,29.73,SE,146,0.0,7.0,96,0.00,,,0.67,28.00,VWS V14.00,2013-03-09 21:59:00,
2013-03-09 16:00:00,39.7,38.7,29.73,SE,146,0.0,7.0,96,0.00,,,0.67,28.00,VWS V14.00,2013-03-09 22:00:00,
2013-03-09 16:02:00,39.8,38.8,29.74,SSE,153,4.0,4.0,96,0.00,,-RA,0.67,26.00,VWS V14.00,2013-03-09 22:02:00,
2013-03-09 16:04:00,39.8,38.8,29.74,SE,137,4.0,5.0,96,0.00,,-RA,0.67,32.00,VWS V14.00,2013-03-09 22:04:00,
2013-03-09 16:05:00,39.8,38.8,29.74,SE,138,2.0,5.0,96,0.00,,,0.67,32.00,VWS V14.00,2013-03-09 22:05:00,
2013-03-09 16:07:00,39.8,38.8,29.74,SE,138,0.0,4.0,96,0.00,,-RA,0.67,30.00,VWS V14.00,2013-03-09 22:07:00,
2013-03-09 16:09:00,39.8,38.8,29.74,SE,138,0.0,4.0,96,0.00,,-RA,0.67,23.00,VWS V14.00,2013-03-09 22:09:00,
2013-03-09 16:10:00,39.8,38.8,29.74,SE,138,0.0,1.0,96,0.00,,-RA,0.67,23.00,VWS V14.00,2013-03-09 22:10:00,
2013-03-09 16:12:00,39.8,38.8,29.74,SE,138,1.0,1.0,96,0.00,,-RA,0.67,28.00,VWS V14.00,2013-03-09 22:12:00,
2013-03-09 16:14:00,39.8,38.8,29.74,SE,137,1.0,2.0,96,0.00,,-RA,0.67,39.00,VWS V14.00,2013-03-09 22:14:00,
2013-03-09 16:15:00,39.8,39.0,29.74,SE,138,0.0,2.0,97,0.00,,-RA,0.67,37.00,VWS V14.00,2013-03-09 22:15:00,
2013-03-09 16:17:00,39.8,38.8,29.74,SE,138,2.0,2.0,96,0.00,,-RA,0.67,39.00,VWS V14.00,2013-03-09 22:17:00,
2013-03-09 16:19:00,39.8,38.8,29.75,SE,138,2.0,2.0,96,0.00,,-RA,0.67,32.00,VWS V14.00,2013-03-09 22:19:00,
2013-03-09 16:20:00,39.8,38.8,29.75,SE,137,4.0,4.0,96,0.00,,-RA,0.67,33.00,VWS V14.00,2013-03-09 22:20:00,
2013-03-09 16:22:00,39.8,38.8,29.74,SE,137,2.0,4.0,96,0.00,,-RA,0.67,37.00,VWS V14.00,2013-03-09 22:22:00,
2013-03-09 16:24:00,39.8,38.8,29.74,SE,138,1.0,1.0,96,0.00,,-RA,0.67,33.00,VWS V14.00,2013-03-09 22:24:00,
2013-03-09 16:25:00,39.8,38.8,29.74,SE,138,0.0,1.0,96,0.00,,-RA,0.67,35.00,VWS V14.00,2013-03-09 22:25:00,
2013-03-09 16:28:00,39.8,38.8,29.74,SE,138,0.0,4.0,96,0.00,,-RA,0.67,35.00,VWS V14.00,2013-03-09 22:28:00,
2013-03-09 16:29:00,39.8,38.8,29.74,SE,138,0.0,0.0,96,0.00,,-RA,0.67,30.00,VWS V14.00,2013-03-09 22:29:00,
2013-03-09 16:30:00,39.8,38.8,29.74,SE,138,0.0,0.0,96,0.00,,-RA,0.67,28.00,VWS V14.00,2013-03-09 22:30:00,
2013-03-09 16:31:00,39.8,39.0,29.74,SE,138,4.0,4.0,97,0.00,,-RA,0.67,28.00,VWS V14.00,2013-03-09 22:31:00,
2013-03-09 16:33:00,39.8,38.8,29.74,SE,136,2.0,6.0,96,0.00,,-RA,0.67,32.00,VWS V14.00,2013-03-09 22:33:00,
2013-03-09 16:34:00,39.8,38.8,29.74,SE,136,2.0,5.0,96,0.00,,-RA,0.67,32.00,VWS V14.00,2013-03-09 22:34:00,
2013-03-09 16:35:00,39.8,38.8,29.74,SE,136,4.0,5.0,96,0.00,,-RA,0.67,33.00,VWS V14.00,2013-03-09 22:35:00,
2013-03-09 16:36:00,39.8,38.8,29.74,SE,136,2.0,5.0,96,0.00,,-RA,0.67,32.00,VWS V14.00,2013-03-09 22:36:00,
2013-03-09 16:38:00,39.8,38.8,29.74,SE,138,4.0,5.0,96,0.00,,-RA,0.67,32.00,VWS V14.00,2013-03-09 22:38:00,
2013-03-09 16:39:00,39.8,38.8,29.74,SE,138,2.0,5.0,96,0.00,,-RA,0.67,30.00,VWS V14.00,2013-03-09 22:39:00,
2013-03-09 16:40:00,39.8,38.8,29.74,SE,138,4.0,5.0,96,0.00,,,0.67,30.00,VWS V14.00,2013-03-09 22:40:00,
2013-03-09 16:41:00,39.8,38.8,29.74,SE,138,2.0,5.0,96,0.00,,,0.67,26.00,VWS V14.00,2013-03-09 22:41:00,
2013-03-09 16:44:00,39.8,38.8,29.74,SE,138,4.0,5.0,96,0.00,,,0.67,26.00,VWS V14.00,2013-03-09 22:44:00,
2013-03-09 16:45:00,39.8,38.8,29.73,SE,138,4.0,5.0,96,0.00,,,0.67,26.00,VWS V14.00,2013-03-09 22:45:00,
2013-03-09 16:46:00,39.8,38.8,29.74,SE,138,4.0,5.0,96,0.00,,,0.67,25.00,VWS V14.00,2013-03-09 22:46:00,
2013-03-09 16:49:00,39.7,38.7,29.73,SE,138,4.0,5.0,96,0.01,,,0.68,32.00,VWS V14.00,2013-03-09 22:49:00,
2013-03-09 16:50:00,39.7,38.7,29.73,SE,138,5.0,5.0,96,0.01,,,0.68,33.00,VWS V14.00,2013-03-09 22:50:00,
2013-03-09 16:51:00,39.7,38.7,29.73,SE,138,2.0,5.0,96,0.01,,,0.68,42.00,VWS V14.00,2013-03-09 22:51:00,
2013-03-09 16:54:00,39.8,39.0,29.73,SE,126,5.0,6.0,97,0.01,,,0.68,44.00,VWS V14.00,2013-03-09 22:54:00,
2013-03-09 16:55:00,39.8,39.0,29.73,SE,131,4.0,6.0,97,0.01,,,0.68,40.00,VWS V14.00,2013-03-09 22:55:00,
2013-03-09 16:57:00,39.9,39.1,29.73,SE,134,4.0,6.0,97,0.01,,,0.68,35.00,VWS V14.00,2013-03-09 22:57:00,
2013-03-09 16:59:00,39.9,39.1,29.73,ESE,115,5.0,5.0,97,0.01,,,0.68,28.00,VWS V14.00,2013-03-09 22:59:00,
2013-03-09 17:00:00,39.9,39.1,29.73,SSE,153,4.0,5.0,97,0.01,,OVC008,0.68,26.00,VWS V14.00,2013-03-09 23:00:00,
2013-03-09 17:01:00,39.9,39.1,29.73,SSE,152,5.0,5.0,97,0.01,,OVC008,0.68,26.00,VWS V14.00,2013-03-09 23:01:00,
2013-03-09 17:02:00,39.9,39.1,29.73,SE,136,5.0,6.0,97,0.01,,OVC008,0.68,25.00,VWS V14.00,2013-03-09 23:02:00,
2013-03-09 17:04:00,39.9,39.1,29.72,SE,131,5.0,6.0,97,0.01,,OVC008,0.68,23.00,VWS V14.00,2013-03-09 23:04:00,
2013-03-09 17:05:00,39.9,39.1,29.73,SE,125,4.0,6.0,97,0.01,,OVC008,0.68,21.00,VWS V14.00,2013-03-09 23:05:00,
2013-03-09 17:06:00,39.9,39.1,29.73,ESE,118,5.0,6.0,97,0.01,,OVC008,0.68,21.00,VWS V14.00,2013-03-09 23:06:00,
2013-03-09 17:07:00,39.9,39.1,29.73,East,101,5.0,6.0,97,0.01,,OVC008,0.68,21.00,VWS V14.00,2013-03-09 23:07:00,
2013-03-09 17:09:00,40.0,39.2,29.73,SE,128,2.0,4.0,97,0.01,,OVC008,0.68,18.00,VWS V14.00,2013-03-09 23:09:00,
2013-03-09 17:10:00,40.0,39.2,29.73,SE,128,2.0,6.0,97,0.01,,,0.68,19.00,VWS V14.00,2013-03-09 23:10:00,
2013-03-09 17:11:00,39.9,39.1,29.73,SE,128,1.0,4.0,97,0.01,,OVC008,0.68,18.00,VWS V14.00,2013-03-09 23:11:00,
2013-03-09 17:12:00,39.9,39.1,29.73,East,96,4.0,5.0,97,0.01,,OVC008,0.68,18.00,VWS V14.00,2013-03-09 23:12:00,
2013-03-09 17:14:00,39.8,39.0,29.73,ESE,110,4.0,5.0,97,0.01,,OVC008,0.68,18.00,VWS V14.00,2013-03-09 23:14:00,
2013-03-09 17:15:00,39.8,39.0,29.73,ESE,106,5.0,5.0,97,0.01,,,0.68,18.00,VWS V14.00,2013-03-09 23:15:00,
2013-03-09 17:16:00,39.7,38.9,29.73,ESE,110,4.0,5.0,97,0.01,,OVC008,0.68,18.00,VWS V14.00,2013-03-09 23:16:00,
2013-03-09 17:17:00,39.7,38.7,29.73,ESE,110,1.0,5.0,96,0.01,,OVC008,0.68,18.00,VWS V14.00,2013-03-09 23:17:00,
2013-03-09 17:20:00,39.6,38.8,29.73,ESE,110,2.0,2.0,97,0.01,,OVC008,0.68,16.00,VWS V14.00,2013-03-09 23:20:00,
2013-03-09 17:21:00,39.5,38.7,29.73,ESE,110,2.0,4.0,97,0.01,,,0.68,16.00,VWS V14.00,2013-03-09 23:21:00,
2013-03-09 17:22:00,39.5,38.7,29.73,ESE,122,2.0,5.0,97,0.01,,,0.68,16.00,VWS V14.00,2013-03-09 23:22:00,
2013-03-09 17:25:00,39.4,38.6,29.73,ESE,122,0.0,1.0,97,0.01,,,0.68,12.00,VWS V14.00,2013-03-09 23:25:00,
2013-03-09 17:26:00,39.3,38.5,29.73,ESE,121,4.0,4.0,97,0.01,,,0.68,11.00,VWS V14.00,2013-03-09 23:26:00,
2013-03-09 17:27:00,39.3,38.5,29.73,ESE,121,4.0,4.0,97,0.01,,,0.68,11.00,VWS V14.00,2013-03-09 23:27:00,
2013-03-09 17:30:00,39.3,38.5,29.73,ESE,121,1.0,2.0,97,0.01,,,0.68,9.00,VWS V14.00,2013-03-09 23:30:00,
2013-03-09 17:31:00,39.3,38.5,29.73,ESE,122,4.0,4.0,97,0.01,,,0.68,9.00,VWS V14.00,2013-03-09 23:31:00,
2013-03-09 17:32:00,39.2,38.4,29.72,ESE,121,4.0,4.0,97,0.01,,,0.68,11.00,VWS V14.00,2013-03-09 23:32:00,
2013-03-09 17:35:00,39.2,38.4,29.72,SE,136,4.0,4.0,97,0.01,,,0.68,11.00,VWS V14.00,2013-03-09 23:35:00,
2013-03-09 17:36:00,39.2,38.4,29.72,SE,136,2.0,4.0,97,0.01,,,0.68,11.00,VWS V14.00,2013-03-09 23:36:00,
2013-03-09 17:37:00,39.2,38.4,29.72,SE,136,1.0,4.0,97,0.01,,,0.68,11.00,VWS V14.00,2013-03-09 23:37:00,
2013-03-09 17:40:00,39.1,38.3,29.72,SE,132,0.0,4.0,97,0.01,,-RA,0.68,11.00,VWS V14.00,2013-03-09 23:40:00,
2013-03-09 17:41:00,39.1,38.3,29.72,SE,131,0.0,4.0,97,0.01,,-RA,0.68,9.00,VWS V14.00,2013-03-09 23:41:00,
2013-03-09 17:42:00,39.1,38.3,29.72,SE,131,2.0,4.0,97,0.01,,-RA,0.68,9.00,VWS V14.00,2013-03-09 23:42:00,
2013-03-09 17:45:00,39.0,38.2,29.73,SE,132,1.0,2.0,97,0.01,,-RA,0.68,5.00,VWS V14.00,2013-03-09 23:45:00,
2013-03-09 17:46:00,39.0,38.2,29.73,SE,132,2.0,2.0,97,0.01,,-RA,0.68,5.00,VWS V14.00,2013-03-09 23:46:00,
2013-03-09 17:47:00,39.0,38.2,29.73,SE,132,2.0,2.0,97,0.01,,-RA,0.68,5.00,VWS V14.00,2013-03-09 23:47:00,
2013-03-09 17:50:00,39.1,38.3,29.73,SE,132,0.0,4.0,97,0.00,,-RA,0.68,0.00,VWS V14.00,2013-03-09 23:50:00,
2013-03-09 17:52:00,39.1,38.3,29.73,SE,129,0.0,4.0,97,0.00,,-RA,0.68,0.00,VWS V14.00,2013-03-09 23:52:00,
2013-03-09 17:53:00,39.1,38.3,29.73,SE,130,2.0,4.0,97,0.00,,-RA,0.68,0.00,VWS V14.00,2013-03-09 23:53:00,
2013-03-09 17:55:00,39.1,38.3,29.72,SE,128,4.0,4.0,97,0.00,,-RA,0.68,0.00,VWS V14.00,2013-03-09 23:55:00,
2013-03-09 17:57:00,39.1,38.3,29.72,SE,127,2.0,4.0,97,0.00,,-RA,0.68,0.00,VWS V14.00,2013-03-09 23:57:00,
2013-03-09 17:58:00,39.0,38.2,29.72,SE,128,1.0,4.0,97,0.00,,-RA,0.68,0.00,VWS V14.00,2013-03-09 23:58:00,
2013-03-09 18:00:00,38.9,38.1,29.72,SE,127,2.0,4.0,97,0.00,,,0.68,0.00,VWS V14.00,2013-03-10 00:00:00,
2013-03-09 18:01:00,38.8,38.0,29.71,East,86,2.0,4.0,97,0.00,,-RA,0.68,0.00,VWS V14.00,2013-03-10 00:01:00,
2013-03-09 18:02:00,38.6,37.6,29.71,East,95,2.0,5.0,96,0.00,,-RA,0.68,0.00,VWS V14.00,2013-03-10 00:02:00,
2013-03-09 18:03:00,38.6,37.6,29.71,East,95,2.0,5.0,96,0.00,,-RA,0.68,0.00,VWS V14.00,2013-03-10 00:03:00,
2013-03-09 18:05:00,38.5,37.5,29.71,East,86,3.0,5.0,96,0.00,,,0.68,0.00,VWS V14.00,2013-03-10 00:05:00,
2013-03-09 18:06:00,38.4,37.6,29.71,East,90,0.0,5.0,97,0.00,,-RA,0.68,0.00,VWS V14.00,2013-03-10 00:06:00,
2013-03-09 18:07:00,38.4,37.6,29.71,East,90,2.0,5.0,97,0.00,,-RA,0.68,0.00,VWS V14.00,2013-03-10 00:07:00,
2013-03-09 18:08:00,38.4,37.6,29.71,East,90,1.0,5.0,97,0.00,,-RA,0.68,0.00,VWS V14.00,2013-03-10 00:08:00,
2013-03-09 18:10:00,38.4,37.6,29.71,East,90,0.0,5.0,97,0.00,,,0.68,0.00,VWS V14.00,2013-03-10 00:10:00,
2013-03-09 18:11:00,38.4,37.6,29.71,East,90,1.0,2.0,97,0.00,,-RA,0.68,0.00,VWS V14.00,2013-03-10 00:11:00,
2013-03-09 18:12:00,38.4,37.6,29.71,East,90,2.0,4.0,97,0.00,,-RA,0.68,0.00,VWS V14.00,2013-03-10 00:12:00,
2013-03-09 18:13:00,38.4,37.6,29.72,East,90,0.0,4.0,97,0.00,,-RA,0.68,0.00,VWS V14.00,2013-03-10 00:13:00,
2013-03-09 18:15:00,38.4,37.6,29.72,East,90,0.0,4.0,97,0.00,,,0.68,0.00,VWS V14.00,2013-03-10 00:15:00,
2013-03-09 18:16:00,38.4,37.6,29.71,East,90,1.0,4.0,97,0.00,,-RA,0.68,0.00,VWS V14.00,2013-03-10 00:16:00,
2013-03-09 18:17:00,38.3,37.5,29.71,East,90,0.0,4.0,97,0.00,,-RA,0.68,0.00,VWS V14.00,2013-03-10 00:17:00,
2013-03-09 18:18:00,38.3,37.5,29.72,East,90,0.0,4.0,97,0.00,,-RA,0.68,0.00,VWS V14.00,2013-03-10 00:18:00,
2013-03-09 18:20:00,38.3,37.5,29.71,East,90,1.0,4.0,97,0.00,,,0.68,0.00,VWS V14.00,2013-03-10 00:20:00,
2013-03-09 18:21:00,38.2,37.4,29.72,East,90,0.0,2.0,97,0.00,,-RA,0.68,0.00,VWS V14.00,2013-03-10 00:21:00,
2013-03-09 18:22:00,38.2,37.4,29.72,East,90,0.0,2.0,97,0.00,,-RA,0.68,0.00,VWS V14.00,2013-03-10 00:22:00,
2013-03-09 18:23:00,38.2,37.4,29.72,East,89,0.0,2.0,97,0.00,,-RA,0.68,0.00,VWS V14.00,2013-03-10 00:23:00,
2013-03-09 18:25:00,38.2,37.4,29.72,East,90,0.0,2.0,97,0.00,,,0.68,0.00,VWS V14.00,2013-03-10 00:25:00,
2013-03-09 18:26:00,38.3,37.5,29.72,East,91,1.0,2.0,97,0.00,,-RA,0.68,0.00,VWS V14.00,2013-03-10 00:26:00,
2013-03-09 18:28:00,38.3,37.5,29.72,East,90,2.0,2.0,97,0.00,,-RA,0.68,0.00,VWS V14.00,2013-03-10 00:28:00,
2013-03-09 18:29:00,38.3,37.5,29.72,ESE,123,4.0,6.0,97,0.00,,-RA,0.68,0.00,VWS V14.00,2013-03-10 00:29:00,
2013-03-09 18:30:00,38.3,37.5,29.72,ESE,123,4.0,6.0,97,0.00,,,0.68,0.00,VWS V14.00,2013-03-10 00:30:00,
2013-03-09 18:32:00,38.4,37.6,29.72,ESE,116,4.0,5.0,97,0.00,,-RA,0.68,0.00,VWS V14.00,2013-03-10 00:32:00,
2013-03-09 18:33:00,38.3,37.5,29.71,ESE,107,2.0,5.0,97,0.00,,-RA,0.68,0.00,VWS V14.00,2013-03-10 00:33:00,
2013-03-09 18:34:00,38.3,37.5,29.71,ESE,121,5.0,5.0,97,0.00,,-RA,0.68,0.00,VWS V14.00,2013-03-10 00:34:00,
2013-03-09 18:35:00,38.3,37.5,29.71,ESE,121,5.0,5.0,97,0.00,,,0.68,0.00,VWS V14.00,2013-03-10 00:35:00,
2013-03-09 18:37:00,38.3,37.5,29.71,SE,133,7.0,7.0,97,0.00,,-RA,0.68,0.00,VWS V14.00,2013-03-10 00:37:00,
2013-03-09 18:38:00,38.2,37.4,29.70,SE,129,6.0,7.0,97,0.00,,-RA,0.68,0.00,VWS V14.00,2013-03-10 00:38:00,
2013-03-09 18:39:00,38.2,37.4,29.70,ESE,121,6.0,7.0,97,0.00,,-RA,0.68,0.00,VWS V14.00,2013-03-10 00:39:00,
2013-03-09 18:40:00,38.2,37.4,29.70,SE,134,5.0,7.0,97,0.00,,,0.68,0.00,VWS V14.00,2013-03-10 00:40:00,
2013-03-09 18:42:00,38.1,37.3,29.70,SE,128,5.0,7.0,97,0.00,,OVC012,0.68,0.00,VWS V14.00,2013-03-10 00:42:00,
2013-03-09 18:43:00,38.1,37.3,29.70,East,97,5.0,7.0,97,0.00,,OVC012,0.68,0.00,VWS V14.00,2013-03-10 00:43:00,
2013-03-09 18:44:00,38.1,37.3,29.70,ESE,104,4.0,4.0,97,0.00,,OVC012,0.68,0.00,VWS V14.00,2013-03-10 00:44:00,
2013-03-09 18:45:00,38.1,37.3,29.70,ESE,117,4.0,6.0,97,0.00,,OVC012,0.68,0.00,VWS V14.00,2013-03-10 00:45:00,
2013-03-09 18:47:00,38.0,37.2,29.70,ESE,117,5.0,7.0,97,0.00,,OVC012,0.68,0.00,VWS V14.00,2013-03-10 00:47:00,
2013-03-09 18:48:00,38.0,37.2,29.70,ESE,123,5.0,8.0,97,0.00,,OVC012,0.68,0.00,VWS V14.00,2013-03-10 00:48:00,
2013-03-09 18:49:00,38.0,37.2,29.70,SE,134,7.0,7.0,97,0.00,,OVC012,0.68,0.00,VWS V14.00,2013-03-10 00:49:00,
2013-03-09 18:50:00,37.9,37.1,29.69,ESE,113,6.0,7.0,97,0.00,,OVC012,0.68,0.00,VWS V14.00,2013-03-10 00:50:00,
2013-03-09 18:52:00,37.8,37.0,29.69,ESE,108,6.0,9.0,97,0.00,,OVC012,0.68,0.00,VWS V14.00,2013-03-10 00:52:00,
2013-03-09 18:53:00,37.8,37.0,29.68,SE,128,8.0,9.0,97,0.00,,OVC012,0.68,0.00,VWS V14.00,2013-03-10 00:53:00,
2013-03-09 18:54:00,37.8,37.0,29.68,SE,124,2.0,7.0,97,0.00,,OVC012,0.68,0.00,VWS V14.00,2013-03-10 00:54:00,
2013-03-09 18:55:00,37.8,37.0,29.68,ESE,109,6.0,13.0,97,0.00,,OVC012,0.68,0.00,VWS V14.00,2013-03-10 00:55:00,
2013-03-09 18:57:00,37.7,36.9,29.68,SE,136,7.0,13.0,97,0.00,,OVC012,0.68,0.00,VWS V14.00,2013-03-10 00:57:00,
2013-03-09 18:58:00,37.7,36.9,29.67,SE,126,6.0,13.0,97,0.00,,OVC012,0.68,0.00,VWS V14.00,2013-03-10 00:58:00,
2013-03-09 18:59:00,37.7,36.9,29.67,SE,124,4.0,4.0,97,0.00,,OVC012,0.68,0.00,VWS V14.00,2013-03-10 00:59:00,
2013-03-09 19:00:00,37.7,36.9,29.67,SE,134,5.0,9.0,97,0.00,,OVC012,0.68,0.00,VWS V14.00,2013-03-10 01:00:00,
2013-03-09 19:02:00,37.7,36.9,29.67,East,93,4.0,9.0,97,0.00,,,0.68,0.00,VWS V14.00,2013-03-10 01:02:00,
2013-03-09 19:04:00,37.8,37.0,29.67,ESE,123,2.0,9.0,97,0.00,,,0.68,0.00,VWS V14.00,2013-03-10 01:04:00,
2013-03-09 19:05:00,37.8,37.0,29.68,SE,128,4.0,5.0,97,0.00,,,0.68,0.00,VWS V14.00,2013-03-10 01:05:00,
2013-03-09 19:07:00,37.9,37.1,29.68,ESE,117,8.0,9.0,97,0.00,,,0.68,0.00,VWS V14.00,2013-03-10 01:07:00,
2013-03-09 19:09:00,37.9,37.1,29.68,SE,126,7.0,9.0,97,0.00,,,0.68,0.00,VWS V14.00,2013-03-10 01:09:00,
2013-03-09 19:10:00,37.9,37.1,29.68,SE,124,4.0,7.0,97,0.00,,,0.68,0.00,VWS V14.00,2013-03-10 01:10:00,
2013-03-09 19:11:00,37.9,37.1,29.68,SE,136,6.0,7.0,97,0.00,,,0.68,0.00,VWS V14.00,2013-03-10 01:11:00,
2013-03-09 19:12:00,38.0,37.2,29.68,ESE,117,4.0,7.0,97,0.00,,,0.68,0.00,VWS V14.00,2013-03-10 01:12:00,
2013-03-09 19:14:00,38.0,37.2,29.68,SE,130,6.0,8.0,97,0.00,,,0.68,0.00,VWS V14.00,2013-03-10 01:14:00,
2013-03-09 19:15:00,38.0,37.2,29.68,SE,135,6.0,8.0,97,0.00,,,0.68,0.00,VWS V14.00,2013-03-10 01:15:00,
2013-03-09 19:16:00,38.0,37.2,29.68,SE,139,5.0,9.0,97,0.00,,,0.68,0.00,VWS V14.00,2013-03-10 01:16:00,
2013-03-09 19:17:00,38.0,37.2,29.68,ESE,107,5.0,9.0,97,0.00,,,0.68,0.00,VWS V14.00,2013-03-10 01:17:00,
2013-03-09 19:19:00,38.0,37.2,29.68,ESE,116,4.0,5.0,97,0.00,,,0.68,0.00,VWS V14.00,2013-03-10 01:19:00,
2013-03-09 19:20:00,38.0,37.2,29.68,ESE,115,4.0,5.0,97,0.00,,,0.68,0.00,VWS V14.00,2013-03-10 01:20:00,
2013-03-09 19:21:00,38.0,37.2,29.67,East,97,4.0,5.0,97,0.00,,,0.68,0.00,VWS V14.00,2013-03-10 01:21:00,
2013-03-09 19:22:00,37.9,37.1,29.67,East,95,2.0,7.0,97,0.00,,,0.68,0.00,VWS V14.00,2013-03-10 01:22:00,
2013-03-09 19:24:00,37.9,37.1,29.66,ESE,106,4.0,5.0,97,0.00,,,0.68,0.00,VWS V14.00,2013-03-10 01:24:00,
2013-03-09 19:25:00,37.9,37.1,29.66,East,88,4.0,6.0,97,0.00,,,0.68,0.00,VWS V14.00,2013-03-10 01:25:00,
2013-03-09 19:26:00,37.9,37.1,29.66,ESE,119,4.0,7.0,97,0.00,,,0.68,0.00,VWS V14.00,2013-03-10 01:26:00,
2013-03-09 19:28:00,38.0,37.2,29.66,SE,124,4.0,7.0,97,0.00,,,0.68,0.00,VWS V14.00,2013-03-10 01:28:00,
2013-03-09 19:30:00,38.1,37.3,29.65,ESE,119,4.0,7.0,97,0.00,,,0.68,0.00,VWS V14.00,2013-03-10 01:30:00,
2013-03-09 19:31:00,38.2,37.4,29.66,ESE,113,2.0,7.0,97,0.00,,,0.68,0.00,VWS V14.00,2013-03-10 01:31:00,
2013-03-09 19:33:00,38.3,37.5,29.66,SE,140,1.0,7.0,97,0.00,,,0.68,0.00,VWS V14.00,2013-03-10 01:33:00,
2013-03-09 19:35:00,38.3,37.5,29.67,ESE,106,0.0,2.0,97,0.00,,,0.68,0.00,VWS V14.00,2013-03-10 01:35:00,
2013-03-09 19:36:00,38.3,37.5,29.67,ESE,103,2.0,4.0,97,0.00,,,0.68,0.00,VWS V14.00,2013-03-10 01:36:00,
2013-03-09 19:38:00,38.3,37.5,29.67,East,98,2.0,4.0,97,0.00,,,0.68,0.00,VWS V14.00,2013-03-10 01:38:00,
2013-03-09 19:40:00,38.3,37.5,29.67,ESE,115,2.0,4.0,97,0.00,,,0.68,0.00,VWS V14.00,2013-03-10 01:40:00,
2013-03-09 19:41:00,38.2,37.4,29.67,East,91,4.0,4.0,97,0.00,,,0.68,0.00,VWS V14.00,2013-03-10 01:41:00,
2013-03-09 19:43:00,38.1,37.3,29.67,East,90,2.0,5.0,97,0.00,,,0.68,0.00,VWS V14.00,2013-03-10 01:43:00,
2013-03-09 19:45:00,38.0,37.2,29.67,East,89,2.0,2.0,97,0.00,,,0.68,0.00,VWS V14.00,2013-03-10 01:45:00,
2013-03-09 19:46:00,38.0,37.2,29.67,East,87,1.0,4.0,97,0.00,,,0.68,0.00,VWS V14.00,2013-03-10 01:46:00,
2013-03-09 19:48:00,37.9,37.1,29.67,East,87,0.0,4.0,97,0.00,,,0.68,0.00,VWS V14.00,2013-03-10 01:48:00,
2013-03-09 19:50:00,37.9,37.1,29.68,East,87,0.0,0.0,97,0.00,,,0.68,0.00,VWS V14.00,2013-03-10 01:50:00,
2013-03-09 19:51:00,37.9,37.1,29.68,East,88,1.0,1.0,97,0.00,,,0.68,0.00,VWS V14.00,2013-03-10 01:51:00,
2013-03-09 19:54:00,37.8,37.0,29.69,East,80,0.0,0.0,97,0.00,,,0.68,0.00,VWS V14.00,2013-03-10 01:54:00,
2013-03-09 19:55:00,37.8,37.0,29.69,East,80,0.0,0.0,97,0.00,,,0.68,0.00,VWS V14.00,2013-03-10 01:55:00,
2013-03-09 19:56:00,37.8,37.0,29.69,East,80,0.0,0.0,97,0.00,,,0.68,0.00,VWS V14.00,2013-03-10 01:56:00,
2013-03-09 19:59:00,37.8,37.0,29.70,East,80,0.0,0.0,97,0.00,,,0.68,0.00,VWS V14.00,2013-03-10 01:59:00,
2013-03-09 20:00:00,37.8,37.0,29.70,East,80,0.0,0.0,97,0.00,,,0.68,0.00,VWS V14.00,2013-03-10 02:00:00,
2013-03-09 20:01:00,37.8,37.0,29.70,East,80,1.0,1.0,97,0.00,,,0.68,0.00,VWS V14.00,2013-03-10 02:01:00,
2013-03-09 20:02:00,37.8,37.0,29.70,ENE,78,0.0,1.0,97,0.00,,,0.68,0.00,VWS V14.00,2013-03-10 02:02:00,
2013-03-09 20:04:00,37.8,37.0,29.70,East,80,0.0,0.0,97,0.00,,,0.68,0.00,VWS V14.00,2013-03-10 02:04:00,
2013-03-09 20:05:00,37.8,37.0,29.70,East,80,2.0,3.0,97,0.00,,,0.68,0.00,VWS V14.00,2013-03-10 02:05:00,
2013-03-09 20:06:00,37.8,37.0,29.70,East,80,0.0,3.0,97,0.00,,,0.68,0.00,VWS V14.00,2013-03-10 02:06:00,
2013-03-09 20:07:00,37.8,37.0,29.70,East,80,0.0,3.0,97,0.00,,,0.68,0.00,VWS V14.00,2013-03-10 02:07:00,
2013-03-09 20:09:00,37.8,37.0,29.70,East,80,0.0,0.0,97,0.00,,,0.68,0.00,VWS V14.00,2013-03-10 02:09:00,
2013-03-09 20:10:00,37.7,36.9,29.70,East,80,0.0,2.0,97,0.00,,,0.68,0.00,VWS V14.00,2013-03-10 02:10:00,
2013-03-09 20:11:00,37.8,37.0,29.70,East,80,0.0,2.0,97,0.00,,,0.68,0.00,VWS V14.00,2013-03-10 02:11:00,
2013-03-09 20:12:00,37.8,37.0,29.70,East,80,0.0,2.0,97,0.00,,,0.68,0.00,VWS V14.00,2013-03-10 02:12:00,
2013-03-09 20:15:00,37.8,37.0,29.70,East,80,0.0,1.0,97,0.00,,,0.68,0.00,VWS V14.00,2013-03-10 02:15:00,
2013-03-09 20:16:00,37.8,37.0,29.70,East,80,0.0,1.0,97,0.00,,,0.68,0.00,VWS V14.00,2013-03-10 02:16:00,
2013-03-09 20:17:00,37.8,37.0,29.70,East,80,0.0,1.0,97,0.00,,,0.68,0.00,VWS V14.00,2013-03-10 02:17:00,
2013-03-09 20:20:00,37.8,37.0,29.71,East,81,0.0,0.0,97,0.00,,,0.68,0.00,VWS V14.00,2013-03-10 02:20:00,
2013-03-09 20:21:00,37.9,37.1,29.71,East,80,0.0,1.0,97,0.00,,,0.68,0.00,VWS V14.00,2013-03-10 02:21:00,
2013-03-09 20:22:00,37.9,37.1,29.71,East,80,0.0,2.0,97,0.00,,,0.68,0.00,VWS V14.00,2013-03-10 02:22:00,
2013-03-09 20:25:00,37.9,37.1,29.70,East,80,0.0,0.0,97,0.00,,,0.68,0.00,VWS V14.00,2013-03-10 02:25:00,
2013-03-09 20:26:00,38.0,37.2,29.70,East,80,0.0,0.0,97,0.00,,,0.68,0.00,VWS V14.00,2013-03-10 02:26:00,
2013-03-09 20:27:00,38.0,37.2,29.70,East,80,0.0,3.0,97,0.00,,,0.68,0.00,VWS V14.00,2013-03-10 02:27:00,
2013-03-09 20:30:00,38.0,37.2,29.70,East,80,0.0,3.0,97,0.00,,,0.68,0.00,VWS V14.00,2013-03-10 02:30:00,
2013-03-09 20:31:00,38.0,37.2,29.70,East,80,0.0,2.0,97,0.00,,,0.68,0.00,VWS V14.00,2013-03-10 02:31:00,
2013-03-09 20:32:00,38.0,37.2,29.70,East,80,0.0,3.0,97,0.00,,,0.68,0.00,VWS V14.00,2013-03-10 02:32:00,
2013-03-09 20:35:00,37.3,36.5,29.72,North,9,2.0,4.0,97,0.00,,OVC029,0.68,0.00,VWS V14.00,2013-03-10 02:35:00,
2013-03-09 20:36:00,38.0,37.5,29.70,East,80,0.0,2.0,98,0.00,,,0.68,0.00,VWS V14.00,2013-03-10 02:36:00,
2013-03-09 20:37:00,38.0,37.5,29.71,ENE,74,3.0,4.0,98,0.00,,,0.68,0.00,VWS V14.00,2013-03-10 02:37:00,
2013-03-09 20:40:00,37.3,36.5,29.72,NNE,26,0.0,4.0,97,0.00,,OVC029,0.68,0.00,VWS V14.00,2013-03-10 02:40:00,
2013-03-09 20:41:00,38.0,37.2,29.71,North,351,3.0,4.0,97,0.00,,,0.68,0.00,VWS V14.00,2013-03-10 02:41:00,
2013-03-09 20:42:00,38.0,37.2,29.71,North,351,4.0,5.0,97,0.00,,,0.68,0.00,VWS V14.00,2013-03-10 02:42:00,
2013-03-09 20:45:00,37.9,37.1,29.71,North,360,5.0,5.0,97,0.00,,OVC003,0.68,0.00,VWS V14.00,2013-03-10 02:45:00,
2013-03-09 20:46:00,37.8,37.0,29.71,NE,40,5.0,5.0,97,0.00,,,0.68,0.00,VWS V14.00,2013-03-10 02:46:00,
2013-03-09 20:47:00,37.8,37.0,29.71,NNE,22,1.0,5.0,97,0.00,,,0.68,0.00,VWS V14.00,2013-03-10 02:47:00,
2013-03-09 20:50:00,37.7,36.9,29.71,North,5,2.0,6.0,97,0.00,,OVC003,0.68,0.00,VWS V14.00,2013-03-10 02:50:00,
2013-03-09 20:51:00,37.7,36.9,29.71,North,9,2.0,4.0,97,0.00,,,0.68,0.00,VWS V14.00,2013-03-10 02:51:00,
2013-03-09 20:52:00,37.6,36.8,29.71,North,9,1.0,4.0,97,0.00,,,0.68,0.00,VWS V14.00,2013-03-10 02:52:00,
2013-03-09 20:53:00,37.6,36.8,29.71,North,5,1.0,4.0,97,0.00,,,0.68,0.00,VWS V14.00,2013-03-10 02:53:00,
2013-03-09 20:55:00,37.6,36.8,29.71,NNE,13,3.0,4.0,97,0.00,,OVC003,0.68,0.00,VWS V14.00,2013-03-10 02:55:00,
2013-03-09 20:56:00,37.6,36.8,29.72,NNE,17,0.0,4.0,97,0.00,,,0.68,0.00,VWS V14.00,2013-03-10 02:56:00,
2013-03-09 20:57:00,37.6,36.8,29.72,North,9,4.0,4.0,97,0.00,,,0.68,0.00,VWS V14.00,2013-03-10 02:57:00,
2013-03-09 20:58:00,37.6,36.8,29.72,North,360,3.0,6.0,97,0.00,,,0.68,0.00,VWS V14.00,2013-03-10 02:58:00,
2013-03-09 21:00:00,37.6,36.8,29.72,NNW,346,2.0,6.0,97,0.00,,OVC003,0.68,0.00,VWS V14.00,2013-03-10 03:00:00,
2013-03-09 21:01:00,37.6,36.8,29.72,NNE,12,1.0,4.0,97,0.00,,,0.68,0.00,VWS V14.00,2013-03-10 03:01:00,
2013-03-09 21:02:00,37.6,36.8,29.72,NNE,12,0.0,4.0,97,0.00,,,0.68,0.00,VWS V14.00,2013-03-10 03:02:00,
2013-03-09 21:03:00,37.5,36.7,29.72,NNE,12,0.0,4.0,97,0.00,,,0.68,0.00,VWS V14.00,2013-03-10 03:03:00,
2013-03-09 21:05:00,37.5,36.7,29.72,NNE,13,0.0,4.0,97,0.00,,OVC003,0.68,0.00,VWS V14.00,2013-03-10 03:05:00,
2013-03-09 21:06:00,37.5,36.7,29.72,NNE,13,0.0,4.0,97,0.00,,,0.68,0.00,VWS V14.00,2013-03-10 03:06:00,
2013-03-09 21:07:00,37.5,36.7,29.72,NNE,13,0.0,4.0,97,0.00,,,0.68,0.00,VWS V14.00,2013-03-10 03:07:00,
2013-03-09 21:08:00,37.4,36.6,29.72,NNE,12,2.0,4.0,97,0.00,,,0.68,0.00,VWS V14.00,2013-03-10 03:08:00,
2013-03-09 21:10:00,37.4,36.6,29.72,NNE,12,1.0,4.0,97,0.00,,OVC003,0.68,0.00,VWS V14.00,2013-03-10 03:10:00,
2013-03-09 21:12:00,37.3,36.5,29.72,NE,42,0.0,4.0,97,0.00,,,0.68,0.00,VWS V14.00,2013-03-10 03:12:00,
2013-03-09 21:13:00,37.3,36.5,29.71,NNE,28,2.0,5.0,97,0.00,,,0.68,0.00,VWS V14.00,2013-03-10 03:13:00,
2013-03-09 21:15:00,37.3,36.5,29.71,NE,48,3.0,5.0,97,0.00,,OVC003,0.68,0.00,VWS V14.00,2013-03-10 03:15:00,
2013-03-09 21:17:00,37.2,36.4,29.71,NE,51,2.0,6.0,97,0.00,,,0.68,0.00,VWS V14.00,2013-03-10 03:17:00,
2013-03-09 21:18:00,37.2,36.4,29.71,NNE,18,3.0,6.0,97,0.00,,,0.68,0.00,VWS V14.00,2013-03-10 03:18:00,
2013-03-09 21:20:00,37.2,36.4,29.71,NNE,19,3.0,6.0,97,0.00,,OVC003,0.68,0.00,VWS V14.00,2013-03-10 03:20:00,
2013-03-09 21:22:00,37.2,36.4,29.72,NNE,27,0.0,4.0,97,0.00,,,0.68,0.00,VWS V14.00,2013-03-10 03:22:00,
2013-03-09 21:23:00,37.2,36.4,29.72,NNE,27,0.0,4.0,97,0.00,,,0.68,0.00,VWS V14.00,2013-03-10 03:23:00,
2013-03-09 21:25:00,37.2,36.4,29.72,NNE,27,0.0,4.0,97,0.00,,OVC003,0.68,0.00,VWS V14.00,2013-03-10 03:25:00,
2013-03-09 21:27:00,37.2,36.4,29.72,NNE,28,0.0,2.0,97,0.00,,,0.68,0.00,VWS V14.00,2013-03-10 03:27:00,
2013-03-09 21:28:00,37.2,36.4,29.72,NNE,27,1.0,2.0,97,0.00,,,0.68,0.00,VWS V14.00,2013-03-10 03:28:00,
2013-03-09 21:30:00,37.2,36.4,29.72,NNE,27,2.0,3.0,97,0.00,,OVC003,0.68,0.00,VWS V14.00,2013-03-10 03:30:00,
2013-03-09 21:32:00,37.3,36.5,29.72,North,9,0.0,4.0,97,0.00,,,0.68,0.00,VWS V14.00,2013-03-10 03:32:00,
2013-03-09 21:33:00,37.3,36.5,29.72,North,5,0.0,4.0,97,0.00,,,0.68,0.00,VWS V14.00,2013-03-10 03:33:00,
2013-03-09 21:35:00,37.3,36.5,29.72,North,9,2.0,4.0,97,0.00,,OVC003,0.68,0.00,VWS V14.00,2013-03-10 03:35:00,
2013-03-09 21:37:00,37.3,36.5,29.72,NNE,17,3.0,4.0,97,0.00,,,0.68,0.00,VWS V14.00,2013-03-10 03:37:00,
2013-03-09 21:38:00,37.3,36.5,29.72,NNE,26,3.0,4.0,97,0.00,,,0.68,0.00,VWS V14.00,2013-03-10 03:38:00,
2013-03-09 21:39:00,37.3,36.5,29.72,NNE,26,0.0,4.0,97,0.00,,,0.68,0.00,VWS V14.00,2013-03-10 03:39:00,
2013-03-09 21:40:00,37.3,36.5,29.72,NNE,26,0.0,4.0,97,0.00,,OVC003,0.68,0.00,VWS V14.00,2013-03-10 03:40:00,
2013-03-09 21:43:00,37.2,36.4,29.73,NNE,26,0.0,2.0,97,0.00,,,0.68,0.00,VWS V14.00,2013-03-10 03:43:00,
2013-03-09 21:44:00,37.2,36.4,29.73,NE,46,2.0,2.0,97,0.00,,,0.68,0.00,VWS V14.00,2013-03-10 03:44:00,
2013-03-09 21:45:00,37.2,36.4,29.73,NE,46,2.0,5.0,97,0.00,,OVC003,0.68,0.00,VWS V14.00,2013-03-10 03:45:00,
2013-03-09 21:48:00,37.1,36.3,29.73,North,11,1.0,5.0,97,0.00,,,0.68,0.00,VWS V14.00,2013-03-10 03:48:00,
2013-03-09 21:49:00,37.1,36.3,29.73,North,5,3.0,3.0,97,0.00,,,0.68,0.00,VWS V14.00,2013-03-10 03:49:00,
2013-03-09 21:50:00,37.1,36.3,29.73,North,11,0.0,5.0,97,0.00,,OVC003,0.68,0.00,VWS V14.00,2013-03-10 03:50:00,
2013-03-09 21:53:00,37.0,36.5,29.73,NE,35,2.0,4.0,98,0.00,,,0.68,0.00,VWS V14.00,2013-03-10 03:53:00,
2013-03-09 21:54:00,37.0,36.5,29.73,NNE,30,2.0,2.0,98,0.00,,,0.68,0.00,VWS V14.00,2013-03-10 03:54:00,
2013-03-09 21:55:00,37.0,36.5,29.73,NNE,30,1.0,4.0,98,0.00,,OVC003,0.68,0.00,VWS V14.00,2013-03-10 03:55:00,
2013-03-09 21:58:00,36.8,36.0,29.73,NE,49,2.0,4.0,97,0.00,,,0.68,0.00,VWS V14.00,2013-03-10 03:58:00,
2013-03-09 21:59:00,36.8,36.0,29.73,NE,49,4.0,4.0,97,0.00,,,0.68,0.00,VWS V14.00,2013-03-10 03:59:00,
2013-03-09 22:00:00,36.8,36.0,29.73,NE,49,2.0,4.0,97,0.00,,OVC003,0.68,0.00,VWS V14.00,2013-03-10 04:00:00,
2013-03-09 22:03:00,36.7,35.9,29.73,NE,40,1.0,4.0,97,0.00,,,0.68,0.00,VWS V14.00,2013-03-10 04:03:00,
2013-03-09 22:04:00,36.7,35.9,29.73,ENE,57,0.0,2.0,97,0.00,,,0.68,0.00,VWS V14.00,2013-03-10 04:04:00,
2013-03-09 22:05:00,36.7,35.9,29.73,ENE,57,1.0,4.0,97,0.00,,OVC003,0.68,0.00,VWS V14.00,2013-03-10 04:05:00,
2013-03-09 22:08:00,36.6,35.8,29.74,North,5,3.0,5.0,97,0.00,,,0.68,0.00,VWS V14.00,2013-03-10 04:08:00,
2013-03-09 22:10:00,36.6,35.8,29.74,North,5,1.0,3.0,97,0.00,,,0.68,0.00,VWS V14.00,2013-03-10 04:10:00,
2013-03-09 22:13:00,36.5,35.7,29.74,North,5,0.0,3.0,97,0.00,,,0.68,0.00,VWS V14.00,2013-03-10 04:13:00,
2013-03-09 22:14:00,36.5,35.7,29.74,NNE,23,3.0,3.0,97,0.00,,,0.68,0.00,VWS V14.00,2013-03-10 04:14:00,
2013-03-09 22:15:00,36.5,35.7,29.74,NNE,24,3.0,4.0,97,0.00,,,0.68,0.00,VWS V14.00,2013-03-10 04:15:00,
2013-03-09 22:18:00,36.5,35.7,29.73,North,5,4.0,4.0,97,0.00,,,0.68,0.00,VWS V14.00,2013-03-10 04:18:00,
2013-03-09 22:19:00,36.5,35.7,29.73,NNE,26,3.0,3.0,97,0.00,,,0.68,0.00,VWS V14.00,2013-03-10 04:19:00,
2013-03-09 22:20:00,36.5,35.7,29.73,North,360,5.0,5.0,97,0.00,,,0.68,0.00,VWS V14.00,2013-03-10 04:20:00,
2013-03-09 22:23:00,36.4,35.6,29.73,NNW,345,3.0,6.0,97,0.00,,,0.68,0.00,VWS V14.00,2013-03-10 04:23:00,
2013-03-09 22:24:00,36.4,35.6,29.73,North,9,3.0,6.0,97,0.00,,,0.68,0.00,VWS V14.00,2013-03-10 04:24:00,
2013-03-09 22:25:00,36.4,35.9,29.73,North,9,4.0,4.0,98,0.00,,,0.68,0.00,VWS V14.00,2013-03-10 04:25:00,
2013-03-09 22:28:00,36.4,35.9,29.73,North,5,2.0,5.0,98,0.00,,,0.68,0.00,VWS V14.00,2013-03-10 04:28:00,
2013-03-09 22:29:00,36.4,35.9,29.73,North,9,3.0,5.0,98,0.00,,,0.68,0.00,VWS V14.00,2013-03-10 04:29:00,
2013-03-09 22:30:00,36.4,35.6,29.73,North,5,2.0,3.0,97,0.00,,,0.68,0.00,VWS V14.00,2013-03-10 04:30:00,
2013-03-09 22:34:00,36.3,35.5,29.73,North,5,2.0,5.0,97,0.00,,,0.68,0.00,VWS V14.00,2013-03-10 04:34:00,
2013-03-09 22:35:00,36.3,35.5,29.73,North,5,3.0,5.0,97,0.00,,OVC003,0.68,0.00,VWS V14.00,2013-03-10 04:35:00,
2013-03-09 22:36:00,36.3,35.5,29.73,North,9,0.0,3.0,97,0.00,,,0.68,0.00,VWS V14.00,2013-03-10 04:36:00,
2013-03-09 22:39:00,36.3,35.5,29.73,North,5,1.0,1.0,97,0.00,,,0.68,0.00,VWS V14.00,2013-03-10 04:39:00,
2013-03-09 22:40:00,36.3,35.5,29.73,North,5,2.0,3.0,97,0.00,,,0.68,0.00,VWS V14.00,2013-03-10 04:40:00,
2013-03-09 22:41:00,36.2,35.4,29.73,North,5,2.0,4.0,97,0.00,,,0.68,0.00,VWS V14.00,2013-03-10 04:41:00,
2013-03-09 22:44:00,36.2,35.4,29.72,NNE,17,4.0,4.0,97,0.00,,,0.68,0.00,VWS V14.00,2013-03-10 04:44:00,
2013-03-09 22:45:00,36.3,35.5,29.72,NNE,16,1.0,4.0,97,0.00,,,0.68,0.00,VWS V14.00,2013-03-10 04:45:00,
2013-03-09 22:46:00,36.3,35.5,29.71,NE,42,3.0,4.0,97,0.00,,,0.68,0.00,VWS V14.00,2013-03-10 04:46:00,
2013-03-09 22:49:00,36.3,35.5,29.71,ENE,58,1.0,4.0,97,0.00,,,0.68,0.00,VWS V14.00,2013-03-10 04:49:00,
2013-03-09 22:50:00,36.4,35.6,29.71,ENE,58,2.0,4.0,97,0.00,,,0.68,0.00,VWS V14.00,2013-03-10 04:50:00,
2013-03-09 22:51:00,36.4,35.6,29.71,ENE,63,4.0,7.0,97,0.00,,,0.68,0.00,VWS V14.00,2013-03-10 04:51:00,
2013-03-09 22:54:00,36.3,35.5,29.71,NE,56,5.0,7.0,97,0.00,,,0.68,0.00,VWS V14.00,2013-03-10 04:54:00,
2013-03-09 22:55:00,36.3,35.5,29.71,NE,51,4.0,7.0,97,0.00,,,0.68,0.00,VWS V14.00,2013-03-10 04:55:00,
2013-03-09 22:56:00,36.4,35.6,29.71,ESE,107,4.0,7.0,97,0.00,,,0.68,0.00,VWS V14.00,2013-03-10 04:56:00,
2013-03-09 23:00:00,36.4,35.6,29.70,East,96,1.0,5.0,97,0.00,,,0.68,0.00,VWS V14.00,2013-03-10 05:00:00,
2013-03-09 23:05:00,36.6,36.1,29.71,ENE,78,1.0,2.0,98,0.00,,OVC003,0.68,0.00,VWS V14.00,2013-03-10 05:05:00,
2013-03-09 23:10:00,36.8,36.3,29.70,ENE,78,3.0,4.0,98,0.00,,OVC003,0.68,0.00,VWS V14.00,2013-03-10 05:10:00,
2013-03-09 23:11:00,36.8,36.3,29.70,ENE,78,3.0,4.0,98,0.00,,OVC003,0.68,0.00,VWS V14.00,2013-03-10 05:11:00,
2013-03-09 23:15:00,36.9,36.4,29.70,ENE,60,3.0,4.0,98,0.00,,OVC003,0.68,0.00,VWS V14.00,2013-03-10 05:15:00,
2013-03-09 23:16:00,36.9,36.4,29.70,East,83,3.0,4.0,98,0.00,,OVC003,0.68,0.00,VWS V14.00,2013-03-10 05:16:00,
2013-03-09 23:20:00,36.9,36.4,29.70,ENE,78,2.0,5.0,98,0.00,,,0.68,0.00,VWS V14.00,2013-03-10 05:20:00,
2013-03-09 23:21:00,36.9,36.4,29.70,East,80,1.0,5.0,98,0.00,,,0.68,0.00,VWS V14.00,2013-03-10 05:21:00,
2013-03-09 23:22:00,36.9,36.4,29.70,East,80,3.0,5.0,98,0.00,,,0.68,0.00,VWS V14.00,2013-03-10 05:22:00,
2013-03-09 23:25:00,37.5,37.0,29.68,ESE,116,4.0,7.0,98,0.00,,OVC029,0.00,0.00,VWS V14.00,2013-03-10 05:25:00,
2013-03-09 23:26:00,36.9,36.4,29.69,ENE,63,1.0,4.0,98,0.00,,,0.68,0.00,VWS V14.00,2013-03-10 05:26:00,
2013-03-09 23:27:00,37.0,36.5,29.69,East,85,2.0,4.0,98,0.00,,,0.68,0.00,VWS V14.00,2013-03-10 05:27:00,
2013-03-09 23:30:00,37.1,36.6,29.69,ENE,62,1.0,5.0,98,0.00,,,0.68,0.00,VWS V14.00,2013-03-10 05:30:00,
2013-03-09 23:31:00,37.1,36.6,29.69,ENE,65,2.0,5.0,98,0.00,,,0.68,0.00,VWS V14.00,2013-03-10 05:31:00,
2013-03-09 23:32:00,37.1,36.6,29.69,ENE,65,2.0,5.0,98,0.00,,,0.68,0.00,VWS V14.00,2013-03-10 05:32:00,
2013-03-09 23:35:00,37.7,37.2,29.69,WSW,244,2.0,7.0,98,0.00,,OVC029,0.00,0.00,VWS V14.00,2013-03-10 05:35:00,
2013-03-09 23:36:00,37.1,36.6,29.69,East,87,3.0,4.0,98,0.00,,,0.68,0.00,VWS V14.00,2013-03-10 05:36:00,
2013-03-09 23:37:00,37.1,36.6,29.69,East,86,2.0,4.0,98,0.00,,,0.68,0.00,VWS V14.00,2013-03-10 05:37:00,
2013-03-09 23:40:00,37.6,37.1,29.72,NNW,343,6.0,15.0,98,0.00,,OVC029,0.00,0.00,VWS V14.00,2013-03-10 05:40:00,
2013-03-09 23:41:00,37.1,36.6,29.69,East,80,2.0,4.0,98,0.00,,,0.68,0.00,VWS V14.00,2013-03-10 05:41:00,
2013-03-09 23:42:00,37.1,36.6,29.69,East,80,4.0,4.0,98,0.00,,,0.68,0.00,VWS V14.00,2013-03-10 05:42:00,
2013-03-09 23:45:00,37.5,37.0,29.71,North,9,5.0,11.0,98,0.03,,OVC029,0.03,0.00,VWS V14.00,2013-03-10 05:45:00,
2013-03-09 23:46:00,37.1,36.6,29.69,East,86,2.0,5.0,98,0.00,,,0.68,0.00,VWS V14.00,2013-03-10 05:46:00,
2013-03-09 23:47:00,37.1,36.6,29.69,East,86,0.0,5.0,98,0.00,,,0.68,0.00,VWS V14.00,2013-03-10 05:47:00,
2013-03-09 23:50:00,37.5,37.0,29.70,NNE,17,2.0,9.0,98,0.08,,OVC029,0.08,0.00,VWS V14.00,2013-03-10 05:50:00,
2013-03-09 23:51:00,37.1,36.6,29.69,East,86,1.0,4.0,98,0.00,,,0.68,0.00,VWS V14.00,2013-03-10 05:51:00,
2013-03-09 23:52:00,37.1,36.6,29.69,East,86,2.0,4.0,98,0.00,,,0.68,0.00,VWS V14.00,2013-03-10 05:52:00,
2013-03-09 23:53:00,37.2,36.7,29.68,East,86,2.0,4.0,98,0.00,,,0.68,0.00,VWS V14.00,2013-03-10 05:53:00,
2013-03-09 23:55:00,37.6,37.1,29.71,NW,322,3.0,9.0,98,0.08,,OVC029,0.08,0.00,VWS V14.00,2013-03-10 05:55:00,
2013-03-09 23:56:00,37.3,36.8,29.69,East,86,3.0,3.0,98,0.00,,,0.68,0.00,VWS V14.00,2013-03-10 05:56:00,
2013-03-09 23:57:00,37.3,36.8,29.69,East,86,2.0,3.0,98,0.00,,,0.68,0.00,VWS V14.00,2013-03-10 05:57:00,
2013-03-09 23:58:00,37.3,36.8,29.69,ENE,76,4.0,4.0,98,0.00,,,0.68,0.00,VWS V14.00,2013-03-10 05:58:00,